source: subversion/applications/editors/osm-editor/250905osm.gpx

Last change on this file was 664, checked in by nick, 14 years ago

Changed save/load to always 'OSM' mode; changed example GPX files

File size: 100.0 KB
Line 
1<!-- This data is copyright Nick Whitelegg and licenced under the
2     Creative Commons Licence (Attribution/ShareAlike) v2.0. -->
3<gpx version="1.0" creator="Hogweed Software Freemap::Components class" xmlns="http://www.topografix.com/GPX/1/0">
4<wpt lat="51.0267" lon="-1.47922">
5<name>001</name>
6<type>waypoint</type>
7</wpt>
8<wpt lat="50.8158" lon="-1.57492">
9<name>002</name>
10<type>bridge</type>
11</wpt>
12<wpt lat="50.7961" lon="-1.55634">
13<name>003</name>
14<type>waypoint</type>
15</wpt>
16<wpt lat="51.1187" lon="-1.88999">
17<name>004</name>
18<type>waypoint</type>
19</wpt>
20<wpt lat="51.131" lon="-1.9506">
21<name>005</name>
22<type>waypoint</type>
23</wpt>
24<wpt lat="51.1132" lon="-2.02788">
25<name>006</name>
26<type>waypoint</type>
27</wpt>
28<wpt lat="50.9937" lon="-1.96801">
29<name>007</name>
30<type>car park</type>
31</wpt>
32<wpt lat="50.991" lon="-1.99049">
33<name>008</name>
34<type>waypoint</type>
35</wpt>
36<wpt lat="50.9938" lon="-2.01427">
37<name>009</name>
38<type>waypoint</type>
39</wpt>
40<wpt lat="50.8606" lon="-1.59832">
41<name>010</name>
42<type>waypoint</type>
43</wpt>
44<wpt lat="50.8592" lon="-1.59886">
45<name>011</name>
46<type>bridge</type>
47</wpt>
48<wpt lat="50.8497" lon="-1.59121">
49<name>012</name>
50<type>waypoint</type>
51</wpt>
52<wpt lat="50.8496" lon="-1.5911">
53<name>013</name>
54<type>bridge</type>
55</wpt>
56<wpt lat="50.8421" lon="-1.59725">
57<name>014</name>
58<type>bridge</type>
59</wpt>
60<wpt lat="50.8533" lon="-1.60883">
61<name>015</name>
62<type>bridge</type>
63</wpt>
64<wpt lat="50.7961" lon="-1.55079">
65<name>016</name>
66<type>waypoint</type>
67</wpt>
68<wpt lat="50.7922" lon="-1.54142">
69<name>017</name>
70<type>waypoint</type>
71</wpt>
72<wpt lat="50.7929" lon="-1.54082">
73<name>018</name>
74<type>car park</type>
75</wpt>
76<wpt lat="50.7937" lon="-1.53758">
77<name>019</name>
78<type>farm</type>
79</wpt>
80<wpt lat="50.8058" lon="-1.52476">
81<name>020</name>
82<type>waypoint</type>
83</wpt>
84<wpt lat="51.0272" lon="-1.94364">
85<name>B CH</name>
86<type>church</type>
87</wpt>
88<wpt lat="50.864" lon="-1.59478">
89<name>BANK</name>
90<type>waypoint</type>
91</wpt>
92<wpt lat="51.082" lon="-1.91938">
93<name>BARF ST M</name>
94<type>village</type>
95</wpt>
96<wpt lat="51.1347" lon="-1.99964">
97<name>BARN</name>
98<type>waypoint</type>
99</wpt>
100<wpt lat="51.1167" lon="-2.00587">
101<name>BARN2</name>
102<type>waypoint</type>
103</wpt>
104<wpt lat="51.1529" lon="-2.08892">
105<name>BARN3</name>
106<type>waypoint</type>
107</wpt>
108<wpt lat="51.0171" lon="-1.95561">
109<name>BARN4</name>
110<type>waypoint</type>
111</wpt>
112<wpt lat="50.9983" lon="-1.97052">
113<name>BARN5</name>
114<type>waypoint</type>
115</wpt>
116<wpt lat="51.007" lon="-2.02378">
117<name>BARN6</name>
118<type>waypoint</type>
119</wpt>
120<wpt lat="51.014" lon="-2.0237">
121<name>BARN7</name>
122<type>waypoint</type>
123</wpt>
124<wpt lat="50.991" lon="-1.99002">
125<name>BOG</name>
126<type>caution</type>
127</wpt>
128<wpt lat="50.8487" lon="-1.60476">
129<name>BOG2</name>
130<type>caution</type>
131</wpt>
132<wpt lat="50.7923" lon="-1.54221">
133<name>BOLDRE CH</name>
134<type>church</type>
135</wpt>
136<wpt lat="51.0064" lon="-1.9745">
137<name>BOW C</name>
138<type>church</type>
139</wpt>
140<wpt lat="51.0069" lon="-1.9745">
141<name>BOWERCH</name>
142<type>village</type>
143</wpt>
144<wpt lat="51.0244" lon="-1.46665">
145<name>BRAISH</name>
146<type>waypoint</type>
147</wpt>
148<wpt lat="51.0274" lon="-1.94222">
149<name>BROAD CH</name>
150<type>village</type>
151</wpt>
152<wpt lat="51.0097" lon="-2.03416">
153<name>CROWN</name>
154<type>pub</type>
155</wpt>
156<wpt lat="50.9271" lon="-1.79073">
157<name>FOR</name>
158<type>waypoint</type>
159</wpt>
160<wpt lat="50.7904" lon="-1.56612">
161<name>HOBLER</name>
162<type>pub</type>
163</wpt>
164<wpt lat="51.0103" lon="-1.96739">
165<name>KNOWLE FM</name>
166<type>farm</type>
167</wpt>
168<wpt lat="50.9752" lon="-1.90321">
169<name>MARTIN</name>
170<type>waypoint</type>
171</wpt>
172<wpt lat="51.0232" lon="-1.47071">
173<name>NEWP</name>
174<type>pub</type>
175</wpt>
176<wpt lat="50.8635" lon="-1.59507">
177<name>OAK</name>
178<type>pub</type>
179</wpt>
180<wpt lat="50.7915" lon="-1.57277">
181<name>SETLEY P</name>
182<type>car park</type>
183</wpt>
184<wpt lat="51.1384" lon="-1.99051">
185<name>WYLYE</name>
186<type>village</type>
187</wpt>
188<trk>
189<number>0</number>
190<extensions>
191</extensions>
192<trkseg>
193<trkpt lat="50.92458593" lon="-1.40545649">
194<time>2005-09-10T15:09:16Z</time>
195</trkpt>
196<trkpt lat="50.92585193" lon="-1.405520863">
197<time>2005-09-10T15:11:03Z</time>
198</trkpt>
199<trkpt lat="50.91381417" lon="-1.402001804">
200<time>2005-09-10T15:21:04Z</time>
201</trkpt>
202<trkpt lat="50.91411458" lon="-1.401658481">
203<time>2005-09-10T15:21:32Z</time>
204</trkpt>
205<trkpt lat="50.91443644" lon="-1.401658481">
206<time>2005-09-10T15:21:40Z</time>
207</trkpt>
208<trkpt lat="50.91705428" lon="-1.40277428">
209<time>2005-09-10T15:22:08Z</time>
210</trkpt>
211<trkpt lat="50.91692554" lon="-1.406100221">
212<time>2005-09-10T15:22:55Z</time>
213</trkpt>
214<trkpt lat="50.91602431" lon="-1.413095424">
215<time>2005-09-10T15:23:42Z</time>
216</trkpt>
217<trkpt lat="50.91576682" lon="-1.413889358">
218<time>2005-09-10T15:23:50Z</time>
219</trkpt>
220<trkpt lat="50.91518746" lon="-1.414082477">
221<time>2005-09-10T15:24:46Z</time>
222</trkpt>
223<trkpt lat="50.91503726" lon="-1.414876411">
224<time>2005-09-10T15:24:55Z</time>
225</trkpt>
226<trkpt lat="50.91505872" lon="-1.415327022">
227<time>2005-09-10T15:25:00Z</time>
228</trkpt>
229<trkpt lat="50.92158185" lon="-1.415455768">
230<time>2005-09-10T15:25:56Z</time>
231</trkpt>
232<trkpt lat="50.9218608" lon="-1.418116521">
233<time>2005-09-10T15:26:12Z</time>
234</trkpt>
235<trkpt lat="50.92271911" lon="-1.420004796">
236<time>2005-09-10T15:26:24Z</time>
237</trkpt>
238<trkpt lat="50.92791187" lon="-1.425476504">
239<time>2005-09-10T15:27:44Z</time>
240</trkpt>
241<trkpt lat="50.92769729" lon="-1.426678134">
242<time>2005-09-10T15:28:06Z</time>
243</trkpt>
244<trkpt lat="50.92801916" lon="-1.427429153">
245<time>2005-09-10T15:28:40Z</time>
246</trkpt>
247<trkpt lat="50.92724668" lon="-1.426635219">
248<time>2005-09-10T15:28:59Z</time>
249</trkpt>
250<trkpt lat="50.92825519" lon="-1.424103213">
251<time>2005-09-10T15:29:27Z</time>
252</trkpt>
253<trkpt lat="50.92825519" lon="-1.423609686">
254<time>2005-09-10T15:29:31Z</time>
255</trkpt>
256<trkpt lat="50.92771875" lon="-1.420348119">
257<time>2005-09-10T15:29:51Z</time>
258</trkpt>
259<trkpt lat="50.92801916" lon="-1.419940423">
260<time>2005-09-10T15:29:58Z</time>
261</trkpt>
262<trkpt lat="50.92842685" lon="-1.419961881">
263<time>2005-09-10T15:30:02Z</time>
264</trkpt>
265<trkpt lat="50.93258964" lon="-1.422129106">
266<time>2005-09-10T15:31:00Z</time>
267</trkpt>
268<trkpt lat="50.9342848" lon="-1.419125031">
269<time>2005-09-10T15:31:33Z</time>
270</trkpt>
271<trkpt lat="50.93441354" lon="-1.418738793">
272<time>2005-09-10T15:31:41Z</time>
273</trkpt>
274<trkpt lat="50.94153749" lon="-1.405950017">
275<time>2005-09-10T15:33:20Z</time>
276</trkpt>
277<trkpt lat="50.95168697" lon="-1.403782791">
278<time>2005-09-10T15:34:36Z</time>
279</trkpt>
280<trkpt lat="50.95207321" lon="-1.403868622">
281<time>2005-09-10T15:34:40Z</time>
282</trkpt>
283<trkpt lat="50.95376837" lon="-1.40333218">
284<time>2005-09-10T15:34:56Z</time>
285</trkpt>
286<trkpt lat="50.95936882" lon="-1.405692525">
287<time>2005-09-10T15:35:38Z</time>
288</trkpt>
289<trkpt lat="50.96327412" lon="-1.408825346">
290<time>2005-09-10T15:36:10Z</time>
291</trkpt>
292<trkpt lat="50.9649049" lon="-1.418717336">
293<time>2005-09-10T15:36:48Z</time>
294</trkpt>
295<trkpt lat="50.96505511" lon="-1.419146489">
296<time>2005-09-10T15:36:50Z</time>
297</trkpt>
298<trkpt lat="50.96537697" lon="-1.419704389">
299<time>2005-09-10T15:36:53Z</time>
300</trkpt>
301<trkpt lat="50.96726525" lon="-1.421699953">
302<time>2005-09-10T15:37:07Z</time>
303</trkpt>
304<trkpt lat="50.97177136" lon="-1.430111363">
305<time>2005-09-10T15:37:47Z</time>
306</trkpt>
307<trkpt lat="50.97277987" lon="-1.431205705">
308<time>2005-09-10T15:37:54Z</time>
309</trkpt>
310<trkpt lat="50.97556937" lon="-1.432428792">
311<time>2005-09-10T15:38:11Z</time>
312</trkpt>
313<trkpt lat="50.98086942" lon="-1.442943055">
314<time>2005-09-10T15:39:38Z</time>
315</trkpt>
316<trkpt lat="50.98471034" lon="-1.460237944">
317<time>2005-09-10T15:40:52Z</time>
318</trkpt>
319<trkpt lat="50.98483909" lon="-1.46184727">
320<time>2005-09-10T15:40:59Z</time>
321</trkpt>
322<trkpt lat="50.98468888" lon="-1.462576831">
323<time>2005-09-10T15:41:08Z</time>
324</trkpt>
325<trkpt lat="50.98552573" lon="-1.46369263">
326<time>2005-09-10T15:41:22Z</time>
327</trkpt>
328<trkpt lat="50.9871136" lon="-1.471610513">
329<time>2005-09-10T15:42:03Z</time>
330</trkpt>
331<trkpt lat="50.98891605" lon="-1.471095529">
332<time>2005-09-10T15:42:20Z</time>
333</trkpt>
334<trkpt lat="50.98947395" lon="-1.470752206">
335<time>2005-09-10T15:42:24Z</time>
336</trkpt>
337<trkpt lat="50.99282134" lon="-1.470408883">
338<time>2005-09-10T15:42:48Z</time>
339</trkpt>
340<trkpt lat="50.99348653" lon="-1.470044103">
341<time>2005-09-10T15:42:53Z</time>
342</trkpt>
343<trkpt lat="50.99406589" lon="-1.469293084">
344<time>2005-09-10T15:43:06Z</time>
345</trkpt>
346<trkpt lat="50.99419464" lon="-1.4682202">
347<time>2005-09-10T15:43:15Z</time>
348</trkpt>
349<trkpt lat="50.99462379" lon="-1.468091454">
350<time>2005-09-10T15:43:21Z</time>
351</trkpt>
352<trkpt lat="50.99608291" lon="-1.466889824">
353<time>2005-09-10T15:43:36Z</time>
354</trkpt>
355<trkpt lat="50.99640478" lon="-1.46673962">
356<time>2005-09-10T15:43:39Z</time>
357</trkpt>
358<trkpt lat="50.99760641" lon="-1.466782536">
359<time>2005-09-10T15:43:55Z</time>
360</trkpt>
361<trkpt lat="50.99829305" lon="-1.468348946">
362<time>2005-09-10T15:44:10Z</time>
363</trkpt>
364<trkpt lat="50.99837888" lon="-1.46905705">
365<time>2005-09-10T15:44:14Z</time>
366</trkpt>
367<trkpt lat="50.99835743" lon="-1.469786611">
368<time>2005-09-10T15:44:24Z</time>
369</trkpt>
370<trkpt lat="51.0013615" lon="-1.472876516">
371<time>2005-09-10T15:45:03Z</time>
372</trkpt>
373<trkpt lat="51.01442923" lon="-1.471524683">
374<time>2005-09-10T15:46:29Z</time>
375</trkpt>
376<trkpt lat="51.02088799" lon="-1.466246094">
377<time>2005-09-10T15:47:19Z</time>
378</trkpt>
379<trkpt lat="51.02249731" lon="-1.466160263">
380<time>2005-09-10T15:47:32Z</time>
381</trkpt>
382<trkpt lat="51.02432122" lon="-1.466675247">
383<time>2005-09-10T15:47:56Z</time>
384</trkpt>
385<trkpt lat="51.02421393" lon="-1.46757647">
386<time>2005-09-10T15:48:06Z</time>
387</trkpt>
388<trkpt lat="51.02320542" lon="-1.469936814">
389<time>2005-09-10T15:48:33Z</time>
390</trkpt>
391<trkpt lat="51.02307667" lon="-1.470408883">
392<time>2005-09-10T15:51:40Z</time>
393</trkpt>
394<trkpt lat="51.02337708" lon="-1.472404447">
395<time>2005-09-10T15:53:29Z</time>
396</trkpt>
397<trkpt lat="51.02307667" lon="-1.474743334">
398<time>2005-09-10T15:55:06Z</time>
399</trkpt>
400<trkpt lat="51.02311959" lon="-1.47755429">
401<time>2005-09-10T15:57:09Z</time>
402</trkpt>
403<trkpt lat="51.02477183" lon="-1.479185074">
404<time>2005-09-10T15:59:25Z</time>
405</trkpt>
406<trkpt lat="51.02597346" lon="-1.479356735">
407<time>2005-09-10T16:00:45Z</time>
408</trkpt>
409<trkpt lat="51.02801194" lon="-1.478691547">
410<time>2005-09-10T16:03:19Z</time>
411</trkpt>
412<trkpt lat="51.02816214" lon="-1.478240936">
413<time>2005-09-10T16:03:41Z</time>
414</trkpt>
415<trkpt lat="51.02820506" lon="-1.477532833">
416<time>2005-09-10T16:04:22Z</time>
417</trkpt>
418<trkpt lat="51.02831235" lon="-1.476695983">
419<time>2005-09-10T16:06:14Z</time>
420</trkpt>
421<trkpt lat="51.02852692" lon="-1.475859134">
422<time>2005-09-10T16:08:19Z</time>
423</trkpt>
424<trkpt lat="51.02914919" lon="-1.474357096">
425<time>2005-09-10T16:09:38Z</time>
426</trkpt>
427<trkpt lat="51.02996459" lon="-1.47302672">
428<time>2005-09-10T16:11:17Z</time>
429</trkpt>
430<trkpt lat="51.03114476" lon="-1.470988241">
431<time>2005-09-10T16:13:27Z</time>
432</trkpt>
433<trkpt lat="51.03142371" lon="-1.470473256">
434<time>2005-09-10T16:16:36Z</time>
435</trkpt>
436<trkpt lat="51.03176703" lon="-1.469743695">
437<time>2005-09-10T16:17:52Z</time>
438</trkpt>
439<trkpt lat="51.03346219" lon="-1.466503586">
440<time>2005-09-10T16:22:00Z</time>
441</trkpt>
442<trkpt lat="51.0337626" lon="-1.465516533">
443<time>2005-09-10T16:23:14Z</time>
444</trkpt>
445<trkpt lat="51.03369822" lon="-1.464314903">
446<time>2005-09-10T16:24:56Z</time>
447</trkpt>
448<trkpt lat="51.03369822" lon="-1.464314903">
449<time>2005-09-10T16:25:02Z</time>
450</trkpt>
451<trkpt lat="51.0337626" lon="-1.465387787">
452<time>2005-09-10T16:26:30Z</time>
453</trkpt>
454<trkpt lat="51.03356948" lon="-1.466267551">
455<time>2005-09-10T16:27:23Z</time>
456</trkpt>
457<trkpt lat="51.03095164" lon="-1.471438852">
458<time>2005-09-10T16:33:44Z</time>
459</trkpt>
460<trkpt lat="51.02880587" lon="-1.475043742">
461<time>2005-09-10T16:38:32Z</time>
462</trkpt>
463<trkpt lat="51.02856984" lon="-1.475644557">
464<time>2005-09-10T16:39:17Z</time>
465</trkpt>
466<trkpt lat="51.0281836" lon="-1.478155105">
467<time>2005-09-10T16:42:02Z</time>
468</trkpt>
469<trkpt lat="51.02792611" lon="-1.478841751">
470<time>2005-09-10T16:42:52Z</time>
471</trkpt>
472<trkpt lat="51.02698197" lon="-1.478970497">
473<time>2005-09-10T16:44:18Z</time>
474</trkpt>
475<trkpt lat="51.02608075" lon="-1.479399651">
476<time>2005-09-10T16:45:48Z</time>
477</trkpt>
478<trkpt lat="51.02569451" lon="-1.479442566">
479<time>2005-09-10T16:46:20Z</time>
480</trkpt>
481<trkpt lat="51.02477183" lon="-1.479163616">
482<time>2005-09-10T16:47:47Z</time>
483</trkpt>
484<trkpt lat="51.02477183" lon="-1.479163616">
485<time>2005-09-10T16:47:48Z</time>
486</trkpt>
487<trkpt lat="51.02423539" lon="-1.47875592">
488<time>2005-09-10T16:48:46Z</time>
489</trkpt>
490<trkpt lat="51.02303376" lon="-1.477253883">
491<time>2005-09-10T16:51:17Z</time>
492</trkpt>
493<trkpt lat="51.0231625" lon="-1.47626683">
494<time>2005-09-10T16:52:21Z</time>
495</trkpt>
496<trkpt lat="51.02331271" lon="-1.471996752">
497<time>2005-09-10T16:56:44Z</time>
498</trkpt>
499<trkpt lat="51.02346291" lon="-1.47154614">
500<time>2005-09-10T16:57:21Z</time>
501</trkpt>
502<trkpt lat="51.02299084" lon="-1.470537629">
503<time>2005-09-10T17:00:15Z</time>
504</trkpt>
505<trkpt lat="51.02299084" lon="-1.470537629">
506<time>2005-09-10T17:03:35Z</time>
507</trkpt>
508<trkpt lat="51.02367749" lon="-1.468069996">
509<time>2005-09-10T17:07:25Z</time>
510</trkpt>
511<trkpt lat="51.02408518" lon="-1.467361893">
512<time>2005-09-10T17:07:35Z</time>
513</trkpt>
514<trkpt lat="51.02429976" lon="-1.466675247">
515<time>2005-09-10T17:07:50Z</time>
516</trkpt>
517<trkpt lat="51.02288355" lon="-1.466138805">
518<time>2005-09-10T17:08:34Z</time>
519</trkpt>
520<trkpt lat="51.02082362" lon="-1.46609589">
521<time>2005-09-10T17:08:54Z</time>
522</trkpt>
523<trkpt lat="51.01406445" lon="-1.47118136">
524<time>2005-09-10T17:09:58Z</time>
525</trkpt>
526<trkpt lat="50.99749912" lon="-1.473134009">
527<time>2005-09-10T17:12:33Z</time>
528</trkpt>
529<trkpt lat="50.99485982" lon="-1.478798836">
530<time>2005-09-10T17:13:12Z</time>
531</trkpt>
532<trkpt lat="50.99252094" lon="-1.482189149">
533<time>2005-09-10T17:13:37Z</time>
534</trkpt>
535<trkpt lat="50.99056829" lon="-1.487832518">
536<time>2005-09-10T17:14:17Z</time>
537</trkpt>
538<trkpt lat="50.99026788" lon="-1.489720794">
539<time>2005-09-10T17:14:37Z</time>
540</trkpt>
541<trkpt lat="50.99041808" lon="-1.490171405">
542<time>2005-09-10T17:15:01Z</time>
543</trkpt>
544<trkpt lat="50.99020351" lon="-1.489828082">
545<time>2005-09-10T17:18:07Z</time>
546</trkpt>
547<trkpt lat="50.98983873" lon="-1.490557644">
548<time>2005-09-10T17:18:32Z</time>
549</trkpt>
550<trkpt lat="50.99043954" lon="-1.488905402">
551<time>2005-09-10T17:18:46Z</time>
552</trkpt>
553<trkpt lat="50.99065412" lon="-1.487575026">
554<time>2005-09-10T17:18:58Z</time>
555</trkpt>
556<trkpt lat="50.98898042" lon="-1.485579462">
557<time>2005-09-10T17:19:25Z</time>
558</trkpt>
559<trkpt lat="50.98865856" lon="-1.484270544">
560<time>2005-09-10T17:19:34Z</time>
561</trkpt>
562<trkpt lat="50.98865856" lon="-1.482811422">
563<time>2005-09-10T17:19:44Z</time>
564</trkpt>
565<trkpt lat="50.98694194" lon="-1.482189149">
566<time>2005-09-10T17:20:11Z</time>
567</trkpt>
568<trkpt lat="50.98666299" lon="-1.483390779">
569<time>2005-09-10T17:20:38Z</time>
570</trkpt>
571<trkpt lat="50.98865856" lon="-1.482575387">
572<time>2005-09-10T22:13:48Z</time>
573</trkpt>
574<trkpt lat="50.98844398" lon="-1.481180638">
575<time>2005-09-10T22:14:01Z</time>
576</trkpt>
577<trkpt lat="50.98803628" lon="-1.480086296">
578<time>2005-09-10T22:14:09Z</time>
579</trkpt>
580<trkpt lat="50.98747838" lon="-1.472318617">
581<time>2005-09-10T22:14:51Z</time>
582</trkpt>
583<trkpt lat="50.98550428" lon="-1.463284934">
584<time>2005-09-10T22:15:40Z</time>
585</trkpt>
586<trkpt lat="50.98505367" lon="-1.462576831">
587<time>2005-09-10T22:15:47Z</time>
588</trkpt>
589<trkpt lat="50.98479617" lon="-1.459980452">
590<time>2005-09-10T22:16:02Z</time>
591</trkpt>
592<trkpt lat="50.98119128" lon="-1.443479497">
593<time>2005-09-10T22:17:15Z</time>
594</trkpt>
595<trkpt lat="50.97541917" lon="-1.43245025">
596<time>2005-09-10T22:18:30Z</time>
597</trkpt>
598<trkpt lat="50.97458232" lon="-1.431720689">
599<time>2005-09-10T22:18:36Z</time>
600</trkpt>
601<trkpt lat="50.97254384" lon="-1.430733636">
602<time>2005-09-10T22:18:48Z</time>
603</trkpt>
604<trkpt lat="50.96660006" lon="-1.420455408">
605<time>2005-09-10T22:19:35Z</time>
606</trkpt>
607<trkpt lat="50.96526969" lon="-1.418931912">
608<time>2005-09-10T22:19:44Z</time>
609</trkpt>
610<trkpt lat="50.96488345" lon="-1.417987775">
611<time>2005-09-10T22:19:48Z</time>
612</trkpt>
613<trkpt lat="50.96333849" lon="-1.409233042">
614<time>2005-09-10T22:20:23Z</time>
615</trkpt>
616<trkpt lat="50.96263039" lon="-1.408095785">
617<time>2005-09-10T22:20:29Z</time>
618</trkpt>
619<trkpt lat="50.95711577" lon="-1.403954453">
620<time>2005-09-10T22:21:06Z</time>
621</trkpt>
622<trkpt lat="50.95535624" lon="-1.403804249">
623<time>2005-09-10T22:21:18Z</time>
624</trkpt>
625<trkpt lat="50.95484125" lon="-1.402302211">
626<time>2005-09-10T22:21:30Z</time>
627</trkpt>
628<trkpt lat="50.95417607" lon="-1.402237838">
629<time>2005-09-10T22:21:36Z</time>
630</trkpt>
631<trkpt lat="50.95301735" lon="-1.403396553">
632<time>2005-09-10T22:21:47Z</time>
633</trkpt>
634<trkpt lat="50.95260966" lon="-1.403589672">
635<time>2005-09-10T22:21:51Z</time>
636</trkpt>
637<trkpt lat="50.95220196" lon="-1.40361113">
638<time>2005-09-10T22:21:55Z</time>
639</trkpt>
640<trkpt lat="50.95160114" lon="-1.404040283">
641<time>2005-09-10T22:22:01Z</time>
642</trkpt>
643<trkpt lat="50.94078647" lon="-1.406765409">
644<time>2005-09-10T22:23:22Z</time>
645</trkpt>
646<trkpt lat="50.920745" lon="-1.404748387">
647<time>2005-09-10T22:26:26Z</time>
648</trkpt>
649<trkpt lat="50.92007981" lon="-1.404405064">
650<time>2005-09-10T22:27:36Z</time>
651</trkpt>
652<trkpt lat="50.81626757" lon="-1.574371336">
653<time>2005-09-17T14:14:31Z</time>
654</trkpt>
655<trkpt lat="50.81652506" lon="-1.57452154">
656<time>2005-09-17T14:15:09Z</time>
657</trkpt>
658<trkpt lat="50.81590278" lon="-1.575294016">
659<time>2005-09-17T14:16:08Z</time>
660</trkpt>
661<trkpt lat="50.81577404" lon="-1.574821947">
662<time>2005-09-17T14:17:02Z</time>
663</trkpt>
664<trkpt lat="50.81558092" lon="-1.574371336">
665<time>2005-09-17T14:17:33Z</time>
666</trkpt>
667<trkpt lat="50.81540926" lon="-1.573706148">
668<time>2005-09-17T14:18:31Z</time>
669</trkpt>
670<trkpt lat="50.81532343" lon="-1.572525976">
671<time>2005-09-17T14:19:17Z</time>
672</trkpt>
673<trkpt lat="50.81521614" lon="-1.571667669">
674<time>2005-09-17T14:20:06Z</time>
675</trkpt>
676<trkpt lat="50.81633194" lon="-1.571259973">
677<time>2005-09-17T14:21:28Z</time>
678</trkpt>
679<trkpt lat="50.81508739" lon="-1.569822308">
680<time>2005-09-17T14:22:56Z</time>
681</trkpt>
682<trkpt lat="50.81429346" lon="-1.567612167">
683<time>2005-09-17T14:25:37Z</time>
684</trkpt>
685<trkpt lat="50.81429346" lon="-1.567612167">
686<time>2005-09-17T14:25:55Z</time>
687</trkpt>
688<trkpt lat="50.81386431" lon="-1.566861149">
689<time>2005-09-17T14:27:34Z</time>
690</trkpt>
691<trkpt lat="50.81339224" lon="-1.56647491">
692<time>2005-09-17T14:28:40Z</time>
693</trkpt>
694<trkpt lat="50.81292017" lon="-1.566410537">
695<time>2005-09-17T14:29:16Z</time>
696</trkpt>
697<trkpt lat="50.81242664" lon="-1.566539283">
698<time>2005-09-17T14:29:59Z</time>
699</trkpt>
700<trkpt lat="50.81221206" lon="-1.566260334">
701<time>2005-09-17T14:30:30Z</time>
702</trkpt>
703<trkpt lat="50.81158979" lon="-1.565788265">
704<time>2005-09-17T14:31:34Z</time>
705</trkpt>
706<trkpt lat="50.81010921" lon="-1.563556666">
707<time>2005-09-17T14:34:25Z</time>
708</trkpt>
709<trkpt lat="50.80993755" lon="-1.563084597">
710<time>2005-09-17T14:34:53Z</time>
711</trkpt>
712<trkpt lat="50.80989463" lon="-1.562054629">
713<time>2005-09-17T14:36:56Z</time>
714</trkpt>
715<trkpt lat="50.80935819" lon="-1.561496729">
716<time>2005-09-17T14:38:02Z</time>
717</trkpt>
718<trkpt lat="50.80817802" lon="-1.56074571">
719<time>2005-09-17T14:39:39Z</time>
720</trkpt>
721<trkpt lat="50.80787761" lon="-1.561282152">
722<time>2005-09-17T14:40:16Z</time>
723</trkpt>
724<trkpt lat="50.807427" lon="-1.560810083">
725<time>2005-09-17T14:41:13Z</time>
726</trkpt>
727<trkpt lat="50.80506666" lon="-1.559329503">
728<time>2005-09-17T14:45:56Z</time>
729</trkpt>
730<trkpt lat="50.80382211" lon="-1.557484143">
731<time>2005-09-17T14:51:19Z</time>
732</trkpt>
733<trkpt lat="50.80326421" lon="-1.556990616">
734<time>2005-09-17T14:54:21Z</time>
735</trkpt>
736<trkpt lat="50.80311401" lon="-1.556518548">
737<time>2005-09-17T14:54:49Z</time>
738</trkpt>
739<trkpt lat="50.80307109" lon="-1.555810444">
740<time>2005-09-17T14:55:26Z</time>
741</trkpt>
742<trkpt lat="50.80294235" lon="-1.555231087">
743<time>2005-09-17T14:55:58Z</time>
744</trkpt>
745<trkpt lat="50.80223424" lon="-1.554136745">
746<time>2005-09-17T14:57:32Z</time>
747</trkpt>
748<trkpt lat="50.8009897" lon="-1.553342811">
749<time>2005-09-17T14:59:38Z</time>
750</trkpt>
751<trkpt lat="50.79991681" lon="-1.552999488">
752<time>2005-09-17T15:09:43Z</time>
753</trkpt>
754<trkpt lat="50.79938037" lon="-1.553063861">
755<time>2005-09-17T15:10:49Z</time>
756</trkpt>
757<trkpt lat="50.79895122" lon="-1.55353593">
758<time>2005-09-17T15:14:33Z</time>
759</trkpt>
760<trkpt lat="50.7986079" lon="-1.554029457">
761<time>2005-09-17T15:21:32Z</time>
762</trkpt>
763<trkpt lat="50.79807145" lon="-1.555209629">
764<time>2005-09-17T15:23:08Z</time>
765</trkpt>
766<trkpt lat="50.79768522" lon="-1.555252544">
767<time>2005-09-17T15:23:53Z</time>
768</trkpt>
769<trkpt lat="50.79674108" lon="-1.55621814">
770<time>2005-09-17T15:27:22Z</time>
771</trkpt>
772<trkpt lat="50.79644067" lon="-1.556325428">
773<time>2005-09-17T15:27:46Z</time>
774</trkpt>
775<trkpt lat="50.79586131" lon="-1.556389801">
776<time>2005-09-17T15:34:39Z</time>
777</trkpt>
778<trkpt lat="50.79586131" lon="-1.556389801">
779<time>2005-09-17T15:34:59Z</time>
780</trkpt>
781<trkpt lat="50.79431636" lon="-1.557119363">
782<time>2005-09-17T15:37:15Z</time>
783</trkpt>
784<trkpt lat="50.79431636" lon="-1.557119363">
785<time>2005-09-17T15:37:16Z</time>
786</trkpt>
787<trkpt lat="50.79270703" lon="-1.557956212">
788<time>2005-09-17T15:40:21Z</time>
789</trkpt>
790<trkpt lat="50.79244954" lon="-1.55834245">
791<time>2005-09-17T15:40:52Z</time>
792</trkpt>
793<trkpt lat="50.79197747" lon="-1.55890035">
794<time>2005-09-17T15:41:55Z</time>
795</trkpt>
796<trkpt lat="50.791205" lon="-1.560960287">
797<time>2005-09-17T15:46:34Z</time>
798</trkpt>
799<trkpt lat="50.79092605" lon="-1.56158256">
800<time>2005-09-17T16:01:39Z</time>
801</trkpt>
802<trkpt lat="50.79075439" lon="-1.562440867">
803<time>2005-09-17T16:02:55Z</time>
804</trkpt>
805<trkpt lat="50.7909475" lon="-1.563213343">
806<time>2005-09-17T16:03:19Z</time>
807</trkpt>
808<trkpt lat="50.79086167" lon="-1.563771243">
809<time>2005-09-17T16:04:48Z</time>
810</trkpt>
811<trkpt lat="50.79088313" lon="-1.564200396">
812<time>2005-09-17T16:05:11Z</time>
813</trkpt>
814<trkpt lat="50.79073293" lon="-1.565380569">
815<time>2005-09-17T16:06:25Z</time>
816</trkpt>
817<trkpt lat="50.79049689" lon="-1.566131588">
818<time>2005-09-17T16:07:27Z</time>
819</trkpt>
820<trkpt lat="50.79049689" lon="-1.566131588">
821<time>2005-09-17T16:07:40Z</time>
822</trkpt>
823<trkpt lat="50.7902394" lon="-1.566002841">
824<time>2005-09-17T16:08:04Z</time>
825</trkpt>
826<trkpt lat="50.7896815" lon="-1.565444942">
827<time>2005-09-17T16:09:05Z</time>
828</trkpt>
829<trkpt lat="50.79026086" lon="-1.565981384">
830<time>2005-09-17T16:09:49Z</time>
831</trkpt>
832<trkpt lat="50.791205" lon="-1.56638908">
833<time>2005-09-17T16:11:26Z</time>
834</trkpt>
835<trkpt lat="50.79047544" lon="-1.566153045">
836<time>2005-09-17T16:12:24Z</time>
837</trkpt>
838<trkpt lat="50.78893048" lon="-1.564651008">
839<time>2005-09-17T16:14:37Z</time>
840</trkpt>
841<trkpt lat="50.78893048" lon="-1.564651008">
842<time>2005-09-17T16:14:38Z</time>
843</trkpt>
844<trkpt lat="50.78993899" lon="-1.565745349">
845<time>2005-09-17T16:15:37Z</time>
846</trkpt>
847<trkpt lat="50.79219205" lon="-1.566946979">
848<time>2005-09-17T16:17:53Z</time>
849</trkpt>
850<trkpt lat="50.79219205" lon="-1.566946979">
851<time>2005-09-17T16:17:54Z</time>
852</trkpt>
853<trkpt lat="50.7926212" lon="-1.567204471">
854<time>2005-09-17T16:18:33Z</time>
855</trkpt>
856<trkpt lat="50.79259975" lon="-1.568277355">
857<time>2005-09-17T16:19:54Z</time>
858</trkpt>
859<trkpt lat="50.7931791" lon="-1.572654722">
860<time>2005-09-17T16:23:05Z</time>
861</trkpt>
862<trkpt lat="50.79296453" lon="-1.572933672">
863<time>2005-09-17T16:23:25Z</time>
864</trkpt>
865<trkpt lat="50.79229934" lon="-1.572998045">
866<time>2005-09-17T16:24:13Z</time>
867</trkpt>
868<trkpt lat="50.7915054" lon="-1.57276201">
869<time>2005-09-17T16:25:33Z</time>
870</trkpt>
871<trkpt lat="50.79122645" lon="-1.572139738">
872<time>2005-09-17T16:26:18Z</time>
873</trkpt>
874<trkpt lat="50.79069001" lon="-1.571603296">
875<time>2005-09-17T16:27:23Z</time>
876</trkpt>
877<trkpt lat="50.79069001" lon="-1.571603296">
878<time>2005-09-17T16:27:58Z</time>
879</trkpt>
880<trkpt lat="50.79069001" lon="-1.571603296">
881<time>2005-09-17T16:28:03Z</time>
882</trkpt>
883<trkpt lat="50.78893048" lon="-1.572375772">
884<time>2005-09-17T16:30:18Z</time>
885</trkpt>
886<trkpt lat="50.78893048" lon="-1.572375772">
887<time>2005-09-17T16:30:19Z</time>
888</trkpt>
889<trkpt lat="50.78910214" lon="-1.572890756">
890<time>2005-09-17T16:31:08Z</time>
891</trkpt>
892<trkpt lat="50.78888757" lon="-1.573577402">
893<time>2005-09-17T16:31:56Z</time>
894</trkpt>
895<trkpt lat="50.7885657" lon="-1.573749063">
896<time>2005-09-17T16:32:31Z</time>
897</trkpt>
898<trkpt lat="50.7885657" lon="-1.573749063">
899<time>2005-09-17T16:32:36Z</time>
900</trkpt>
901<trkpt lat="50.78815801" lon="-1.573427198">
902<time>2005-09-17T16:33:52Z</time>
903</trkpt>
904<trkpt lat="50.78742845" lon="-1.573513029">
905<time>2005-09-17T16:37:12Z</time>
906</trkpt>
907<trkpt lat="50.7867418" lon="-1.574542998">
908<time>2005-09-17T16:38:41Z</time>
909</trkpt>
910<trkpt lat="50.78676326" lon="-1.575057982">
911<time>2005-09-17T16:39:24Z</time>
912</trkpt>
913<trkpt lat="50.78712804" lon="-1.574006556">
914<time>2005-09-17T16:40:30Z</time>
915</trkpt>
916<trkpt lat="50.78775031" lon="-1.572912214">
917<time>2005-09-17T16:41:46Z</time>
918</trkpt>
919<trkpt lat="50.78809363" lon="-1.572590349">
920<time>2005-09-17T16:42:12Z</time>
921</trkpt>
922<trkpt lat="50.78871591" lon="-1.572418687">
923<time>2005-09-17T16:43:01Z</time>
924</trkpt>
925<trkpt lat="50.78871591" lon="-1.572418687">
926<time>2005-09-17T16:43:02Z</time>
927</trkpt>
928<trkpt lat="50.78933818" lon="-1.572998045">
929<time>2005-09-17T16:43:56Z</time>
930</trkpt>
931<trkpt lat="50.78993899" lon="-1.573212621">
932<time>2005-09-17T16:44:41Z</time>
933</trkpt>
934<trkpt lat="50.7902394" lon="-1.573234079">
935<time>2005-09-17T16:45:04Z</time>
936</trkpt>
937<trkpt lat="50.79133374" lon="-1.572912214">
938<time>2005-09-17T16:46:29Z</time>
939</trkpt>
940<trkpt lat="50.79223497" lon="-1.573126791">
941<time>2005-09-17T16:47:38Z</time>
942</trkpt>
943<trkpt lat="50.79311473" lon="-1.574585913">
944<time>2005-09-17T16:49:19Z</time>
945</trkpt>
946<trkpt lat="50.7935868" lon="-1.577611446">
947<time>2005-09-17T16:52:08Z</time>
948</trkpt>
949<trkpt lat="50.79347951" lon="-1.576560019">
950<time>2005-09-17T16:53:13Z</time>
951</trkpt>
952<trkpt lat="50.79431636" lon="-1.577246665">
953<time>2005-09-17T16:54:41Z</time>
954</trkpt>
955<trkpt lat="50.79480989" lon="-1.577268123">
956<time>2005-09-17T16:55:33Z</time>
957</trkpt>
958<trkpt lat="50.79562528" lon="-1.577075004">
959<time>2005-09-17T16:56:55Z</time>
960</trkpt>
961<trkpt lat="50.79935891" lon="-1.578963279">
962<time>2005-09-17T17:05:19Z</time>
963</trkpt>
964<trkpt lat="50.79965932" lon="-1.579821586">
965<time>2005-09-17T17:06:36Z</time>
966</trkpt>
967<trkpt lat="50.80021722" lon="-1.580787182">
968<time>2005-09-17T17:08:37Z</time>
969</trkpt>
970<trkpt lat="50.80049617" lon="-1.580851555">
971<time>2005-09-17T17:09:08Z</time>
972</trkpt>
973<trkpt lat="50.80049617" lon="-1.580851555">
974<time>2005-09-17T17:09:36Z</time>
975</trkpt>
976<trkpt lat="50.80073221" lon="-1.581130505">
977<time>2005-09-17T17:10:45Z</time>
978</trkpt>
979<trkpt lat="50.80161197" lon="-1.580100536">
980<time>2005-09-17T17:13:57Z</time>
981</trkpt>
982<trkpt lat="50.80161197" lon="-1.580100536">
983<time>2005-09-17T17:14:34Z</time>
984</trkpt>
985<trkpt lat="50.80161197" lon="-1.580100536">
986<time>2005-09-17T17:15:37Z</time>
987</trkpt>
988<trkpt lat="50.80180509" lon="-1.580658436">
989<time>2005-09-17T17:16:30Z</time>
990</trkpt>
991<trkpt lat="50.80219133" lon="-1.581216336">
992<time>2005-09-17T17:17:07Z</time>
993</trkpt>
994<trkpt lat="50.80289943" lon="-1.581924439">
995<time>2005-09-17T17:18:05Z</time>
996</trkpt>
997<trkpt lat="50.80302818" lon="-1.582525254">
998<time>2005-09-17T17:18:58Z</time>
999</trkpt>
1000<trkpt lat="50.80335004" lon="-1.582353593">
1001<time>2005-09-17T17:19:22Z</time>
1002</trkpt>
1003<trkpt lat="50.80455167" lon="-1.582181931">
1004<time>2005-09-17T17:20:41Z</time>
1005</trkpt>
1006<trkpt lat="50.80538852" lon="-1.582696915">
1007<time>2005-09-17T17:22:01Z</time>
1008</trkpt>
1009<trkpt lat="50.80538852" lon="-1.582696915">
1010<time>2005-09-17T17:22:02Z</time>
1011</trkpt>
1012<trkpt lat="50.80596788" lon="-1.582439423">
1013<time>2005-09-17T17:22:40Z</time>
1014</trkpt>
1015<trkpt lat="50.80624683" lon="-1.582417966">
1016<time>2005-09-17T17:23:07Z</time>
1017</trkpt>
1018<trkpt lat="50.80933674" lon="-1.580422401">
1019<time>2005-09-17T17:26:51Z</time>
1020</trkpt>
1021<trkpt lat="50.81079586" lon="-1.579950333">
1022<time>2005-09-17T17:28:24Z</time>
1023</trkpt>
1024<trkpt lat="50.81279142" lon="-1.57988596">
1025<time>2005-09-17T17:30:25Z</time>
1026</trkpt>
1027<trkpt lat="50.81534489" lon="-1.578920364">
1028<time>2005-09-17T17:33:14Z</time>
1029</trkpt>
1030<trkpt lat="50.81641777" lon="-1.577997684">
1031<time>2005-09-17T17:34:29Z</time>
1032</trkpt>
1033<trkpt lat="50.81663235" lon="-1.577632903">
1034<time>2005-09-17T17:34:48Z</time>
1035</trkpt>
1036<trkpt lat="50.81590278" lon="-1.575422762">
1037<time>2005-09-17T17:36:32Z</time>
1038</trkpt>
1039<trkpt lat="50.81663235" lon="-1.574285505">
1040<time>2005-09-17T17:37:24Z</time>
1041</trkpt>
1042<trkpt lat="50.81693275" lon="-1.573255537">
1043<time>2005-09-17T17:38:04Z</time>
1044</trkpt>
1045<trkpt lat="50.91465102" lon="-1.414854953">
1046<time>2005-09-18T13:55:18Z</time>
1047</trkpt>
1048<trkpt lat="50.91471539" lon="-1.421893072">
1049<time>2005-09-18T13:56:12Z</time>
1050</trkpt>
1051<trkpt lat="50.91458665" lon="-1.42255826">
1052<time>2005-09-18T13:56:17Z</time>
1053</trkpt>
1054<trkpt lat="50.91179715" lon="-1.427686645">
1055<time>2005-09-18T13:57:48Z</time>
1056</trkpt>
1057<trkpt lat="50.91072427" lon="-1.43189235">
1058<time>2005-09-18T13:58:09Z</time>
1059</trkpt>
1060<trkpt lat="50.91261254" lon="-1.436763243">
1061<time>2005-09-18T13:58:33Z</time>
1062</trkpt>
1063<trkpt lat="50.91407166" lon="-1.449680766">
1064<time>2005-09-18T13:59:40Z</time>
1065</trkpt>
1066<trkpt lat="50.91439353" lon="-1.450925311">
1067<time>2005-09-18T13:59:45Z</time>
1068</trkpt>
1069<trkpt lat="50.91550933" lon="-1.453693352">
1070<time>2005-09-18T13:59:58Z</time>
1071</trkpt>
1072<trkpt lat="50.92070209" lon="-1.465087379">
1073<time>2005-09-18T14:00:52Z</time>
1074</trkpt>
1075<trkpt lat="50.92192517" lon="-1.469121423">
1076<time>2005-09-18T14:01:23Z</time>
1077</trkpt>
1078<trkpt lat="50.92192517" lon="-1.469872441">
1079<time>2005-09-18T14:01:29Z</time>
1080</trkpt>
1081<trkpt lat="50.92207538" lon="-1.47062346">
1082<time>2005-09-18T14:01:35Z</time>
1083</trkpt>
1084<trkpt lat="50.92228996" lon="-1.47090241">
1085<time>2005-09-18T14:01:38Z</time>
1086</trkpt>
1087<trkpt lat="50.92342721" lon="-1.469872441">
1088<time>2005-09-18T14:01:52Z</time>
1089</trkpt>
1090<trkpt lat="50.93119489" lon="-1.473627535">
1091<time>2005-09-18T14:02:35Z</time>
1092</trkpt>
1093<trkpt lat="50.93900549" lon="-1.473327128">
1094<time>2005-09-18T14:03:13Z</time>
1095</trkpt>
1096<trkpt lat="50.94134437" lon="-1.473927943">
1097<time>2005-09-18T14:03:25Z</time>
1098</trkpt>
1099<trkpt lat="50.94464886" lon="-1.475794761">
1100<time>2005-09-18T14:03:49Z</time>
1101</trkpt>
1102<trkpt lat="50.94490635" lon="-1.476223914">
1103<time>2005-09-18T14:03:53Z</time>
1104</trkpt>
1105<trkpt lat="50.94512093" lon="-1.477082221">
1106<time>2005-09-18T14:03:58Z</time>
1107</trkpt>
1108<trkpt lat="50.94595777" lon="-1.528430446">
1109<time>2005-09-18T14:06:45Z</time>
1110</trkpt>
1111<trkpt lat="50.94591486" lon="-1.5288596">
1112<time>2005-09-18T14:06:47Z</time>
1113</trkpt>
1114<trkpt lat="50.94542133" lon="-1.528537735">
1115<time>2005-09-18T14:06:51Z</time>
1116</trkpt>
1117<trkpt lat="50.94514238" lon="-1.528945431">
1118<time>2005-09-18T14:06:54Z</time>
1119</trkpt>
1120<trkpt lat="50.94512093" lon="-1.529996857">
1121<time>2005-09-18T14:07:00Z</time>
1122</trkpt>
1123<trkpt lat="50.94552862" lon="-1.53042601">
1124<time>2005-09-18T14:07:04Z</time>
1125</trkpt>
1126<trkpt lat="50.94617235" lon="-1.530511841">
1127<time>2005-09-18T14:07:09Z</time>
1128</trkpt>
1129<trkpt lat="50.94748127" lon="-1.529953941">
1130<time>2005-09-18T14:07:19Z</time>
1131</trkpt>
1132<trkpt lat="50.94932663" lon="-1.530511841">
1133<time>2005-09-18T14:07:29Z</time>
1134</trkpt>
1135<trkpt lat="50.9532963" lon="-1.533966527">
1136<time>2005-09-18T14:07:54Z</time>
1137</trkpt>
1138<trkpt lat="50.9534465" lon="-1.534846292">
1139<time>2005-09-18T14:08:01Z</time>
1140</trkpt>
1141<trkpt lat="50.95404732" lon="-1.535704599">
1142<time>2005-09-18T14:08:09Z</time>
1143</trkpt>
1144<trkpt lat="50.95462668" lon="-1.53699206">
1145<time>2005-09-18T14:08:17Z</time>
1146</trkpt>
1147<trkpt lat="50.96904624" lon="-1.58477831">
1148<time>2005-09-18T14:11:31Z</time>
1149</trkpt>
1150<trkpt lat="50.96902478" lon="-1.58561516">
1151<time>2005-09-18T14:11:37Z</time>
1152</trkpt>
1153<trkpt lat="50.97114909" lon="-1.591752056">
1154<time>2005-09-18T14:12:11Z</time>
1155</trkpt>
1156<trkpt lat="50.97672809" lon="-1.626663699">
1157<time>2005-09-18T14:14:35Z</time>
1158</trkpt>
1159<trkpt lat="50.98054755" lon="-1.636062162">
1160<time>2005-09-18T14:15:13Z</time>
1161</trkpt>
1162<trkpt lat="50.98209251" lon="-1.638272303">
1163<time>2005-09-18T14:15:25Z</time>
1164</trkpt>
1165<trkpt lat="50.98627675" lon="-1.641555328">
1166<time>2005-09-18T14:15:50Z</time>
1167</trkpt>
1168<trkpt lat="50.9900533" lon="-1.642435093">
1169<time>2005-09-18T14:16:10Z</time>
1170</trkpt>
1171<trkpt lat="50.99350799" lon="-1.644967099">
1172<time>2005-09-18T14:16:30Z</time>
1173</trkpt>
1174<trkpt lat="50.99567522" lon="-1.649237177">
1175<time>2005-09-18T14:16:47Z</time>
1176</trkpt>
1177<trkpt lat="50.99679102" lon="-1.655095123">
1178<time>2005-09-18T14:17:05Z</time>
1179</trkpt>
1180<trkpt lat="50.99799265" lon="-1.65779879">
1181<time>2005-09-18T14:17:15Z</time>
1182</trkpt>
1183<trkpt lat="51.01975073" lon="-1.694834744">
1184<time>2005-09-18T14:20:03Z</time>
1185</trkpt>
1186<trkpt lat="51.02292647" lon="-1.705456295">
1187<time>2005-09-18T14:20:40Z</time>
1188</trkpt>
1189<trkpt lat="51.0241281" lon="-1.708117047">
1190<time>2005-09-18T14:20:50Z</time>
1191</trkpt>
1192<trkpt lat="51.03161683" lon="-1.716764491">
1193<time>2005-09-18T14:21:33Z</time>
1194</trkpt>
1195<trkpt lat="51.03419175" lon="-1.718352359">
1196<time>2005-09-18T14:21:44Z</time>
1197</trkpt>
1198<trkpt lat="51.04062905" lon="-1.719747109">
1199<time>2005-09-18T14:22:08Z</time>
1200</trkpt>
1201<trkpt lat="51.04303231" lon="-1.721656842">
1202<time>2005-09-18T14:22:19Z</time>
1203</trkpt>
1204<trkpt lat="51.04436269" lon="-1.723459287">
1205<time>2005-09-18T14:22:27Z</time>
1206</trkpt>
1207<trkpt lat="51.04721656" lon="-1.72897391">
1208<time>2005-09-18T14:22:46Z</time>
1209</trkpt>
1210<trkpt lat="51.05399719" lon="-1.738565493">
1211<time>2005-09-18T14:23:22Z</time>
1212</trkpt>
1213<trkpt lat="51.05710855" lon="-1.747298768">
1214<time>2005-09-18T14:23:46Z</time>
1215</trkpt>
1216<trkpt lat="51.05968347" lon="-1.762576635">
1217<time>2005-09-18T14:24:30Z</time>
1218</trkpt>
1219<trkpt lat="51.06180778" lon="-1.767318782">
1220<time>2005-09-18T14:24:55Z</time>
1221</trkpt>
1222<trkpt lat="51.06195799" lon="-1.768069801">
1223<time>2005-09-18T14:24:59Z</time>
1224</trkpt>
1225<trkpt lat="51.06118551" lon="-1.77639538">
1226<time>2005-09-18T14:26:02Z</time>
1227</trkpt>
1228<trkpt lat="51.06120697" lon="-1.77575165">
1229<time>2005-09-18T14:26:27Z</time>
1230</trkpt>
1231<trkpt lat="51.06103531" lon="-1.776609957">
1232<time>2005-09-18T14:26:54Z</time>
1233</trkpt>
1234<trkpt lat="51.06146446" lon="-1.778047621">
1235<time>2005-09-18T14:27:27Z</time>
1236</trkpt>
1237<trkpt lat="51.06273046" lon="-1.780257762">
1238<time>2005-09-18T14:28:17Z</time>
1239</trkpt>
1240<trkpt lat="51.06393209" lon="-1.785193028">
1241<time>2005-09-18T14:29:03Z</time>
1242</trkpt>
1243<trkpt lat="51.06425396" lon="-1.789699141">
1244<time>2005-09-18T14:29:57Z</time>
1245</trkpt>
1246<trkpt lat="51.0647904" lon="-1.789184157">
1247<time>2005-09-18T14:30:05Z</time>
1248</trkpt>
1249<trkpt lat="51.06622806" lon="-1.788776461">
1250<time>2005-09-18T14:30:16Z</time>
1251</trkpt>
1252<trkpt lat="51.06775156" lon="-1.789656225">
1253<time>2005-09-18T14:30:26Z</time>
1254</trkpt>
1255<trkpt lat="51.07049814" lon="-1.789763514">
1256<time>2005-09-18T14:30:41Z</time>
1257</trkpt>
1258<trkpt lat="51.0716354" lon="-1.789184157">
1259<time>2005-09-18T14:30:47Z</time>
1260</trkpt>
1261<trkpt lat="51.07395283" lon="-1.786888185">
1262<time>2005-09-18T14:31:39Z</time>
1263</trkpt>
1264<trkpt lat="51.07431761" lon="-1.786759439">
1265<time>2005-09-18T14:31:45Z</time>
1266</trkpt>
1267<trkpt lat="51.07459656" lon="-1.786974016">
1268<time>2005-09-18T14:31:48Z</time>
1269</trkpt>
1270<trkpt lat="51.07483259" lon="-1.787252965">
1271<time>2005-09-18T14:31:51Z</time>
1272</trkpt>
1273<trkpt lat="51.07667795" lon="-1.793625896">
1274<time>2005-09-18T14:32:20Z</time>
1275</trkpt>
1276<trkpt lat="51.07644192" lon="-1.795471256">
1277<time>2005-09-18T14:32:28Z</time>
1278</trkpt>
1279<trkpt lat="51.07571236" lon="-1.796866005">
1280<time>2005-09-18T14:32:54Z</time>
1281</trkpt>
1282<trkpt lat="51.0756909" lon="-1.797423905">
1283<time>2005-09-18T14:32:59Z</time>
1284</trkpt>
1285<trkpt lat="51.07575527" lon="-1.798260755">
1286<time>2005-09-18T14:33:05Z</time>
1287</trkpt>
1288<trkpt lat="51.07530466" lon="-1.798925943">
1289<time>2005-09-18T14:33:10Z</time>
1290</trkpt>
1291<trkpt lat="51.07369534" lon="-1.800470895">
1292<time>2005-09-18T14:33:22Z</time>
1293</trkpt>
1294<trkpt lat="51.07322327" lon="-1.801200457">
1295<time>2005-09-18T14:33:26Z</time>
1296</trkpt>
1297<trkpt lat="51.07210747" lon="-1.80459077">
1298<time>2005-09-18T14:33:45Z</time>
1299</trkpt>
1300<trkpt lat="51.0721933" lon="-1.805449077">
1301<time>2005-09-18T14:33:54Z</time>
1302</trkpt>
1303<trkpt lat="51.07266537" lon="-1.806736538">
1304<time>2005-09-18T14:34:03Z</time>
1305</trkpt>
1306<trkpt lat="51.07551924" lon="-1.822915627">
1307<time>2005-09-18T14:35:30Z</time>
1308</trkpt>
1309<trkpt lat="51.07549778" lon="-1.823645188">
1310<time>2005-09-18T14:35:34Z</time>
1311</trkpt>
1312<trkpt lat="51.07564798" lon="-1.824331834">
1313<time>2005-09-18T14:35:38Z</time>
1314</trkpt>
1315<trkpt lat="51.07858769" lon="-1.831863479">
1316<time>2005-09-18T14:36:17Z</time>
1317</trkpt>
1318<trkpt lat="51.08124844" lon="-1.848021111">
1319<time>2005-09-18T14:37:34Z</time>
1320</trkpt>
1321<trkpt lat="51.08148447" lon="-1.853170954">
1322<time>2005-09-18T14:38:06Z</time>
1323</trkpt>
1324<trkpt lat="51.08193508" lon="-1.855896079">
1325<time>2005-09-18T14:38:20Z</time>
1326</trkpt>
1327<trkpt lat="51.0818278" lon="-1.856432521">
1328<time>2005-09-18T14:38:25Z</time>
1329</trkpt>
1330<trkpt lat="51.07985369" lon="-1.858835781">
1331<time>2005-09-18T14:38:48Z</time>
1332</trkpt>
1333<trkpt lat="51.07953182" lon="-1.859436596">
1334<time>2005-09-18T14:38:52Z</time>
1335</trkpt>
1336<trkpt lat="51.07948891" lon="-1.860209073">
1337<time>2005-09-18T14:38:56Z</time>
1338</trkpt>
1339<trkpt lat="51.07963911" lon="-1.860809888">
1340<time>2005-09-18T14:39:00Z</time>
1341</trkpt>
1342<trkpt lat="51.0793387" lon="-1.862569417">
1343<time>2005-09-18T14:39:05Z</time>
1344</trkpt>
1345<trkpt lat="51.07957474" lon="-1.863341894">
1346<time>2005-09-18T14:39:16Z</time>
1347</trkpt>
1348<trkpt lat="51.08008972" lon="-1.863706674">
1349<time>2005-09-18T14:39:35Z</time>
1350</trkpt>
1351<trkpt lat="51.08002535" lon="-1.863062944">
1352<time>2005-09-18T14:44:51Z</time>
1353</trkpt>
1354<trkpt lat="51.08021847" lon="-1.863384809">
1355<time>2005-09-18T14:45:01Z</time>
1356</trkpt>
1357<trkpt lat="51.08002535" lon="-1.863856878">
1358<time>2005-09-18T14:45:20Z</time>
1359</trkpt>
1360<trkpt lat="51.08167759" lon="-1.866324511">
1361<time>2005-09-18T14:45:41Z</time>
1362</trkpt>
1363<trkpt lat="51.0821282" lon="-1.866753665">
1364<time>2005-09-18T14:45:46Z</time>
1365</trkpt>
1366<trkpt lat="51.08255736" lon="-1.867805091">
1367<time>2005-09-18T14:45:58Z</time>
1368</trkpt>
1369<trkpt lat="51.08523957" lon="-1.870508758">
1370<time>2005-09-18T14:46:36Z</time>
1371</trkpt>
1372<trkpt lat="51.09380118" lon="-1.874049275">
1373<time>2005-09-18T14:47:34Z</time>
1374</trkpt>
1375<trkpt lat="51.09521739" lon="-1.874178021">
1376<time>2005-09-18T14:47:44Z</time>
1377</trkpt>
1378<trkpt lat="51.09605424" lon="-1.874607175">
1379<time>2005-09-18T14:47:52Z</time>
1380</trkpt>
1381<trkpt lat="51.09680526" lon="-1.874392598">
1382<time>2005-09-18T14:48:03Z</time>
1383</trkpt>
1384<trkpt lat="51.09905831" lon="-1.875594228">
1385<time>2005-09-18T14:48:20Z</time>
1386</trkpt>
1387<trkpt lat="51.10107533" lon="-1.877697081">
1388<time>2005-09-18T14:48:36Z</time>
1389</trkpt>
1390<trkpt lat="51.10255591" lon="-1.87816915">
1391<time>2005-09-18T14:48:47Z</time>
1392</trkpt>
1393<trkpt lat="51.10311381" lon="-1.878684134">
1394<time>2005-09-18T14:48:52Z</time>
1395</trkpt>
1396<trkpt lat="51.10369317" lon="-1.879692645">
1397<time>2005-09-18T14:48:59Z</time>
1398</trkpt>
1399<trkpt lat="51.10478751" lon="-1.880894275">
1400<time>2005-09-18T14:49:11Z</time>
1401</trkpt>
1402<trkpt lat="51.10910051" lon="-1.883082958">
1403<time>2005-09-18T14:49:48Z</time>
1404</trkpt>
1405<trkpt lat="51.11169688" lon="-1.885700795">
1406<time>2005-09-18T14:50:15Z</time>
1407</trkpt>
1408<trkpt lat="51.11654632" lon="-1.887975309">
1409<time>2005-09-18T14:50:59Z</time>
1410</trkpt>
1411<trkpt lat="51.11957185" lon="-1.891129588">
1412<time>2005-09-18T14:52:10Z</time>
1413</trkpt>
1414<trkpt lat="51.12043016" lon="-1.892438506">
1415<time>2005-09-18T14:52:22Z</time>
1416</trkpt>
1417<trkpt lat="51.12049453" lon="-1.89379034">
1418<time>2005-09-18T14:52:37Z</time>
1419</trkpt>
1420<trkpt lat="51.1204087" lon="-1.894391155">
1421<time>2005-09-18T14:52:44Z</time>
1422</trkpt>
1423<trkpt lat="51.12038724" lon="-1.896794415">
1424<time>2005-09-18T14:52:59Z</time>
1425</trkpt>
1426<trkpt lat="51.12092369" lon="-1.899648286">
1427<time>2005-09-18T14:53:15Z</time>
1428</trkpt>
1429<trkpt lat="51.12545126" lon="-1.909046749">
1430<time>2005-09-18T14:54:11Z</time>
1431</trkpt>
1432<trkpt lat="51.12727516" lon="-1.915076357">
1433<time>2005-09-18T14:54:55Z</time>
1434</trkpt>
1435<trkpt lat="51.12746828" lon="-1.917608363">
1436<time>2005-09-18T14:55:08Z</time>
1437</trkpt>
1438<trkpt lat="51.12736099" lon="-1.921213253">
1439<time>2005-09-18T14:55:31Z</time>
1440</trkpt>
1441<trkpt lat="51.12703912" lon="-1.92207156">
1442<time>2005-09-18T14:55:42Z</time>
1443</trkpt>
1444<trkpt lat="51.12751119" lon="-1.924946889">
1445<time>2005-09-18T14:56:03Z</time>
1446</trkpt>
1447<trkpt lat="51.12759702" lon="-1.930075274">
1448<time>2005-09-18T14:56:34Z</time>
1449</trkpt>
1450<trkpt lat="51.12706058" lon="-1.931663142">
1451<time>2005-09-18T14:56:48Z</time>
1452</trkpt>
1453<trkpt lat="51.12678163" lon="-1.93344413">
1454<time>2005-09-18T14:56:58Z</time>
1455</trkpt>
1456<trkpt lat="51.12680309" lon="-1.933916199">
1457<time>2005-09-18T14:57:02Z</time>
1458</trkpt>
1459<trkpt lat="51.12748974" lon="-1.936748612">
1460<time>2005-09-18T14:57:22Z</time>
1461</trkpt>
1462<trkpt lat="51.12785452" lon="-1.93769275">
1463<time>2005-09-18T14:57:29Z</time>
1464</trkpt>
1465<trkpt lat="51.12806909" lon="-1.939559568">
1466<time>2005-09-18T14:57:41Z</time>
1467</trkpt>
1468<trkpt lat="51.12824075" lon="-1.940138925">
1469<time>2005-09-18T14:57:47Z</time>
1470</trkpt>
1471<trkpt lat="51.12873428" lon="-1.940696825">
1472<time>2005-09-18T14:57:55Z</time>
1473</trkpt>
1474<trkpt lat="51.12993591" lon="-1.948207013">
1475<time>2005-09-18T14:58:42Z</time>
1476</trkpt>
1477<trkpt lat="51.13098734" lon="-1.950481527">
1478<time>2005-09-18T14:59:02Z</time>
1479</trkpt>
1480<trkpt lat="51.13109463" lon="-1.950932138">
1481<time>2005-09-18T14:59:07Z</time>
1482</trkpt>
1483<trkpt lat="51.13191002" lon="-1.952884787">
1484<time>2005-09-18T14:59:23Z</time>
1485</trkpt>
1486<trkpt lat="51.13248937" lon="-1.953571432">
1487<time>2005-09-18T14:59:30Z</time>
1488</trkpt>
1489<trkpt lat="51.13289707" lon="-1.954880351">
1490<time>2005-09-18T14:59:38Z</time>
1491</trkpt>
1492<trkpt lat="51.13401287" lon="-1.976745725">
1493<time>2005-09-18T15:01:41Z</time>
1494</trkpt>
1495<trkpt lat="51.13448494" lon="-1.979020239">
1496<time>2005-09-18T15:01:54Z</time>
1497</trkpt>
1498<trkpt lat="51.13654488" lon="-1.984298828">
1499<time>2005-09-18T15:02:26Z</time>
1500</trkpt>
1501<trkpt lat="51.13729589" lon="-1.99056447">
1502<time>2005-09-18T15:03:31Z</time>
1503</trkpt>
1504<trkpt lat="51.13766068" lon="-1.990650301">
1505<time>2005-09-18T15:03:48Z</time>
1506</trkpt>
1507<trkpt lat="51.13808983" lon="-1.990607385">
1508<time>2005-09-18T15:04:03Z</time>
1509</trkpt>
1510<trkpt lat="51.13808983" lon="-1.990607385">
1511<time>2005-09-18T15:04:04Z</time>
1512</trkpt>
1513<trkpt lat="51.13877647" lon="-1.990328436">
1514<time>2005-09-18T15:18:28Z</time>
1515</trkpt>
1516<trkpt lat="51.13832586" lon="-1.990521555">
1517<time>2005-09-18T15:19:11Z</time>
1518</trkpt>
1519<trkpt lat="51.13787525" lon="-1.991422777">
1520<time>2005-09-18T15:20:02Z</time>
1521</trkpt>
1522<trkpt lat="51.13763922" lon="-1.993482714">
1523<time>2005-09-18T15:21:30Z</time>
1524</trkpt>
1525<trkpt lat="51.13781088" lon="-1.994577056">
1526<time>2005-09-18T15:22:13Z</time>
1527</trkpt>
1528<trkpt lat="51.1375963" lon="-1.995628482">
1529<time>2005-09-18T15:23:39Z</time>
1530</trkpt>
1531<trkpt lat="51.13656633" lon="-1.996358043">
1532<time>2005-09-18T15:25:13Z</time>
1533</trkpt>
1534<trkpt lat="51.13615864" lon="-1.996808655">
1535<time>2005-09-18T15:25:50Z</time>
1536</trkpt>
1537<trkpt lat="51.13463514" lon="-1.999726899">
1538<time>2005-09-18T15:28:45Z</time>
1539</trkpt>
1540<trkpt lat="51.13463514" lon="-1.999726899">
1541<time>2005-09-18T15:28:59Z</time>
1542</trkpt>
1543<trkpt lat="51.13379829" lon="-2.001336225">
1544<time>2005-09-18T15:31:30Z</time>
1545</trkpt>
1546<trkpt lat="51.13356226" lon="-2.001615175">
1547<time>2005-09-18T15:31:52Z</time>
1548</trkpt>
1549<trkpt lat="51.13240354" lon="-2.002044328">
1550<time>2005-09-18T15:33:26Z</time>
1551</trkpt>
1552<trkpt lat="51.13188856" lon="-2.001765378">
1553<time>2005-09-18T15:34:08Z</time>
1554</trkpt>
1555<trkpt lat="51.13010757" lon="-2.000134595">
1556<time>2005-09-18T15:37:05Z</time>
1557</trkpt>
1558<trkpt lat="51.12849825" lon="-1.999576695">
1559<time>2005-09-18T15:39:40Z</time>
1560</trkpt>
1561<trkpt lat="51.12813347" lon="-1.999598153">
1562<time>2005-09-18T15:40:14Z</time>
1563</trkpt>
1564<trkpt lat="51.12708204" lon="-1.999297745">
1565<time>2005-09-18T15:42:41Z</time>
1566</trkpt>
1567<trkpt lat="51.12216823" lon="-2.001035817">
1568<time>2005-09-18T15:51:28Z</time>
1569</trkpt>
1570<trkpt lat="51.12216823" lon="-2.001035817">
1571<time>2005-09-18T15:51:45Z</time>
1572</trkpt>
1573<trkpt lat="51.12027996" lon="-2.00165809">
1574<time>2005-09-18T15:54:15Z</time>
1575</trkpt>
1576<trkpt lat="51.12000101" lon="-2.001894124">
1577<time>2005-09-18T15:54:36Z</time>
1578</trkpt>
1579<trkpt lat="51.11950748" lon="-2.00258077">
1580<time>2005-09-18T15:56:31Z</time>
1581</trkpt>
1582<trkpt lat="51.1170613" lon="-2.005026945">
1583<time>2005-09-18T16:06:47Z</time>
1584</trkpt>
1585<trkpt lat="51.11671798" lon="-2.005241522">
1586<time>2005-09-18T16:07:39Z</time>
1587</trkpt>
1588<trkpt lat="51.1167609" lon="-2.005863795">
1589<time>2005-09-18T16:08:22Z</time>
1590</trkpt>
1591<trkpt lat="51.11643903" lon="-2.005370268">
1592<time>2005-09-18T16:10:08Z</time>
1593</trkpt>
1594<trkpt lat="51.116203" lon="-2.006207118">
1595<time>2005-09-18T16:10:50Z</time>
1596</trkpt>
1597<trkpt lat="51.11598842" lon="-2.008481632">
1598<time>2005-09-18T16:12:31Z</time>
1599</trkpt>
1600<trkpt lat="51.11294143" lon="-2.009940754">
1601<time>2005-09-18T16:17:48Z</time>
1602</trkpt>
1603<trkpt lat="51.11294143" lon="-2.009940754">
1604<time>2005-09-18T16:18:28Z</time>
1605</trkpt>
1606<trkpt lat="51.11337058" lon="-2.015391004">
1607<time>2005-09-18T16:23:17Z</time>
1608</trkpt>
1609<trkpt lat="51.11358516" lon="-2.016764296">
1610<time>2005-09-18T16:24:33Z</time>
1611</trkpt>
1612<trkpt lat="51.11349933" lon="-2.017257822">
1613<time>2005-09-18T16:24:53Z</time>
1614</trkpt>
1615<trkpt lat="51.11334913" lon="-2.017729891">
1616<time>2005-09-18T16:25:17Z</time>
1617</trkpt>
1618<trkpt lat="51.11334913" lon="-2.017729891">
1619<time>2005-09-18T16:25:22Z</time>
1620</trkpt>
1621<trkpt lat="51.11128919" lon="-2.024725094">
1622<time>2005-09-18T16:31:59Z</time>
1623</trkpt>
1624<trkpt lat="51.11109607" lon="-2.027042524">
1625<time>2005-09-18T16:39:39Z</time>
1626</trkpt>
1627<trkpt lat="51.11109607" lon="-2.027042524">
1628<time>2005-09-18T16:40:47Z</time>
1629</trkpt>
1630<trkpt lat="51.11122482" lon="-2.026956693">
1631<time>2005-09-18T16:41:59Z</time>
1632</trkpt>
1633<trkpt lat="51.11122482" lon="-2.026956693">
1634<time>2005-09-18T16:42:00Z</time>
1635</trkpt>
1636<trkpt lat="51.11319892" lon="-2.027879373">
1637<time>2005-09-18T16:44:22Z</time>
1638</trkpt>
1639<trkpt lat="51.11319892" lon="-2.027879373">
1640<time>2005-09-18T16:44:24Z</time>
1641</trkpt>
1642<trkpt lat="51.11345641" lon="-2.028008119">
1643<time>2005-09-18T16:44:43Z</time>
1644</trkpt>
1645<trkpt lat="51.11493699" lon="-2.029274122">
1646<time>2005-09-18T16:46:34Z</time>
1647</trkpt>
1648<trkpt lat="51.11648195" lon="-2.031655925">
1649<time>2005-09-18T16:52:51Z</time>
1650</trkpt>
1651<trkpt lat="51.11648195" lon="-2.031655925">
1652<time>2005-09-18T16:52:52Z</time>
1653</trkpt>
1654<trkpt lat="51.11991518" lon="-2.036269326">
1655<time>2005-09-18T17:03:22Z</time>
1656</trkpt>
1657<trkpt lat="51.11991518" lon="-2.036269326">
1658<time>2005-09-18T17:04:17Z</time>
1659</trkpt>
1660<trkpt lat="51.12008684" lon="-2.037406582">
1661<time>2005-09-18T17:08:06Z</time>
1662</trkpt>
1663<trkpt lat="51.12094514" lon="-2.039359231">
1664<time>2005-09-18T17:11:22Z</time>
1665</trkpt>
1666<trkpt lat="51.12195365" lon="-2.040732523">
1667<time>2005-09-18T17:13:00Z</time>
1668</trkpt>
1669<trkpt lat="51.12324112" lon="-2.042964121">
1670<time>2005-09-18T17:16:22Z</time>
1671</trkpt>
1672<trkpt lat="51.12354152" lon="-2.043457648">
1673<time>2005-09-18T17:16:53Z</time>
1674</trkpt>
1675<trkpt lat="51.12371318" lon="-2.044487616">
1676<time>2005-09-18T17:17:45Z</time>
1677</trkpt>
1678<trkpt lat="51.12403505" lon="-2.045066974">
1679<time>2005-09-18T17:18:13Z</time>
1680</trkpt>
1681<trkpt lat="51.12437837" lon="-2.046461723">
1682<time>2005-09-18T17:19:49Z</time>
1683</trkpt>
1684<trkpt lat="51.12521522" lon="-2.048006676">
1685<time>2005-09-18T17:22:12Z</time>
1686</trkpt>
1687<trkpt lat="51.12637394" lon="-2.049616002">
1688<time>2005-09-18T17:27:17Z</time>
1689</trkpt>
1690<trkpt lat="51.12673872" lon="-2.050066613">
1691<time>2005-09-18T17:33:54Z</time>
1692</trkpt>
1693<trkpt lat="51.12673872" lon="-2.050066613">
1694<time>2005-09-18T17:34:22Z</time>
1695</trkpt>
1696<trkpt lat="51.12787597" lon="-2.051182412">
1697<time>2005-09-18T17:35:58Z</time>
1698</trkpt>
1699<trkpt lat="51.1287772" lon="-2.052276754">
1700<time>2005-09-18T17:41:52Z</time>
1701</trkpt>
1702<trkpt lat="51.1287772" lon="-2.052276754">
1703<time>2005-09-18T17:42:15Z</time>
1704</trkpt>
1705<trkpt lat="51.13152378" lon="-2.056503916">
1706<time>2005-09-18T17:47:11Z</time>
1707</trkpt>
1708<trkpt lat="51.13540762" lon="-2.06229749">
1709<time>2005-09-18T17:53:56Z</time>
1710</trkpt>
1711<trkpt lat="51.1353647" lon="-2.062876847">
1712<time>2005-09-18T17:56:00Z</time>
1713</trkpt>
1714<trkpt lat="51.13645905" lon="-2.064657834">
1715<time>2005-09-18T17:57:54Z</time>
1716</trkpt>
1717<trkpt lat="51.13723152" lon="-2.065516141">
1718<time>2005-09-18T18:00:04Z</time>
1719</trkpt>
1720<trkpt lat="51.13798254" lon="-2.066589025">
1721<time>2005-09-18T18:02:47Z</time>
1722</trkpt>
1723<trkpt lat="51.13817566" lon="-2.066953806">
1724<time>2005-09-18T18:03:43Z</time>
1725</trkpt>
1726<trkpt lat="51.14139431" lon="-2.072747379">
1727<time>2005-09-18T18:10:43Z</time>
1728</trkpt>
1729<trkpt lat="51.14139431" lon="-2.072747379">
1730<time>2005-09-18T18:11:06Z</time>
1731</trkpt>
1732<trkpt lat="51.14579314" lon="-2.078712614">
1733<time>2005-09-18T18:20:17Z</time>
1734</trkpt>
1735<trkpt lat="51.14639395" lon="-2.079806955">
1736<time>2005-09-18T18:21:41Z</time>
1737</trkpt>
1738<trkpt lat="51.1465227" lon="-2.080429228">
1739<time>2005-09-18T18:22:10Z</time>
1740</trkpt>
1741<trkpt lat="51.14718788" lon="-2.081759604">
1742<time>2005-09-18T18:23:14Z</time>
1743</trkpt>
1744<trkpt lat="51.14931219" lon="-2.08540741">
1745<time>2005-09-18T18:26:17Z</time>
1746</trkpt>
1747<trkpt lat="51.14987009" lon="-2.086651955">
1748<time>2005-09-18T18:27:13Z</time>
1749</trkpt>
1750<trkpt lat="51.15012759" lon="-2.087038193">
1751<time>2005-09-18T18:27:33Z</time>
1752</trkpt>
1753<trkpt lat="51.15223044" lon="-2.089033757">
1754<time>2005-09-18T18:30:08Z</time>
1755</trkpt>
1756<trkpt lat="51.15265959" lon="-2.089505826">
1757<time>2005-09-18T18:31:06Z</time>
1758</trkpt>
1759<trkpt lat="51.15317458" lon="-2.089977895">
1760<time>2005-09-18T18:31:48Z</time>
1761</trkpt>
1762<trkpt lat="51.15394705" lon="-2.090407049">
1763<time>2005-09-18T18:33:19Z</time>
1764</trkpt>
1765<trkpt lat="51.154226" lon="-2.090471422">
1766<time>2005-09-18T18:35:17Z</time>
1767</trkpt>
1768<trkpt lat="51.15532034" lon="-2.090664541">
1769<time>2005-09-18T18:36:52Z</time>
1770</trkpt>
1771<trkpt lat="51.15566367" lon="-2.091115152">
1772<time>2005-09-18T18:37:31Z</time>
1773</trkpt>
1774<trkpt lat="51.1558997" lon="-2.092102205">
1775<time>2005-09-18T18:37:52Z</time>
1776</trkpt>
1777<trkpt lat="51.15624302" lon="-2.092853224">
1778<time>2005-09-18T18:38:29Z</time>
1779</trkpt>
1780<trkpt lat="51.15667218" lon="-2.093797362">
1781<time>2005-09-18T18:39:12Z</time>
1782</trkpt>
1783<trkpt lat="51.15783089" lon="-2.095513976">
1784<time>2005-09-18T18:40:40Z</time>
1785</trkpt>
1786<trkpt lat="51.15817422" lon="-2.096286453">
1787<time>2005-09-18T18:41:21Z</time>
1788</trkpt>
1789<trkpt lat="51.15817422" lon="-2.096286453">
1790<time>2005-09-18T18:41:24Z</time>
1791</trkpt>
1792<trkpt lat="51.15847462" lon="-2.096694148">
1793<time>2005-09-18T18:41:46Z</time>
1794</trkpt>
1795<trkpt lat="51.1582815" lon="-2.096264995">
1796<time>2005-09-18T18:42:55Z</time>
1797</trkpt>
1798<trkpt lat="51.1582815" lon="-2.096264995">
1799<time>2005-09-18T18:43:16Z</time>
1800</trkpt>
1801<trkpt lat="51.1582815" lon="-2.096264995">
1802<time>2005-09-18T18:43:20Z</time>
1803</trkpt>
1804<trkpt lat="51.15856045" lon="-2.095921672">
1805<time>2005-09-18T18:43:42Z</time>
1806</trkpt>
1807<trkpt lat="51.15864628" lon="-2.095127738">
1808<time>2005-09-18T18:44:19Z</time>
1809</trkpt>
1810<trkpt lat="51.15847462" lon="-2.096114791">
1811<time>2005-09-18T18:44:43Z</time>
1812</trkpt>
1813<trkpt lat="51.15819567" lon="-2.096651233">
1814<time>2005-09-18T18:45:40Z</time>
1815</trkpt>
1816<trkpt lat="51.16012686" lon="-2.099204697">
1817<time>2005-09-18T18:47:09Z</time>
1818</trkpt>
1819<trkpt lat="51.1637103" lon="-2.095084823">
1820<time>2005-09-18T18:53:22Z</time>
1821</trkpt>
1822<trkpt lat="51.16308802" lon="-2.09594313">
1823<time>2005-09-18T18:58:02Z</time>
1824</trkpt>
1825<trkpt lat="51.16338843" lon="-2.095685638">
1826<time>2005-09-18T18:58:16Z</time>
1827</trkpt>
1828<trkpt lat="51.16302365" lon="-2.094333804">
1829<time>2005-09-18T18:59:20Z</time>
1830</trkpt>
1831<trkpt lat="51.16321677" lon="-2.095578349">
1832<time>2005-09-18T18:59:51Z</time>
1833</trkpt>
1834<trkpt lat="51.16379613" lon="-2.096136249">
1835<time>2005-09-18T19:00:37Z</time>
1836</trkpt>
1837<trkpt lat="51.16323823" lon="-2.096007503">
1838<time>2005-09-18T19:00:58Z</time>
1839</trkpt>
1840<trkpt lat="51.16237992" lon="-2.094720042">
1841<time>2005-09-18T19:01:15Z</time>
1842</trkpt>
1843<trkpt lat="51.16300219" lon="-2.094484008">
1844<time>2005-09-18T19:01:34Z</time>
1845</trkpt>
1846<trkpt lat="51.16240138" lon="-2.091286813">
1847<time>2005-09-18T19:03:25Z</time>
1848</trkpt>
1849<trkpt lat="51.16233701" lon="-2.089269792">
1850<time>2005-09-18T19:04:32Z</time>
1851</trkpt>
1852<trkpt lat="51.16210097" lon="-2.088626061">
1853<time>2005-09-18T19:05:03Z</time>
1854</trkpt>
1855<trkpt lat="51.16126412" lon="-2.087488804">
1856<time>2005-09-18T19:05:50Z</time>
1857</trkpt>
1858<trkpt lat="51.16074914" lon="-2.087231312">
1859<time>2005-09-18T19:06:07Z</time>
1860</trkpt>
1861<trkpt lat="51.1609208" lon="-2.085750732">
1862<time>2005-09-18T19:06:52Z</time>
1863</trkpt>
1864<trkpt lat="51.16085643" lon="-2.085171375">
1865<time>2005-09-18T19:07:12Z</time>
1866</trkpt>
1867<trkpt lat="51.16062039" lon="-2.084806595">
1868<time>2005-09-18T19:07:31Z</time>
1869</trkpt>
1870<trkpt lat="51.16012686" lon="-2.084398899">
1871<time>2005-09-18T19:08:10Z</time>
1872</trkpt>
1873<trkpt lat="51.16038436" lon="-2.083819541">
1874<time>2005-09-18T19:08:52Z</time>
1875</trkpt>
1876<trkpt lat="51.1607706" lon="-2.083390388">
1877<time>2005-09-18T19:09:18Z</time>
1878</trkpt>
1879<trkpt lat="51.16349572" lon="-2.08188835">
1880<time>2005-09-18T19:11:58Z</time>
1881</trkpt>
1882<trkpt lat="51.16383904" lon="-2.081480654">
1883<time>2005-09-18T19:12:21Z</time>
1884</trkpt>
1885<trkpt lat="51.16413945" lon="-2.080729636">
1886<time>2005-09-18T19:13:10Z</time>
1887</trkpt>
1888<trkpt lat="51.16413945" lon="-2.080729636">
1889<time>2005-09-18T19:13:23Z</time>
1890</trkpt>
1891<trkpt lat="51.16454715" lon="-2.080193194">
1892<time>2005-09-18T19:14:27Z</time>
1893</trkpt>
1894<trkpt lat="51.16489047" lon="-2.079291971">
1895<time>2005-09-18T19:14:45Z</time>
1896</trkpt>
1897<trkpt lat="51.16514796" lon="-2.079034479">
1898<time>2005-09-18T19:14:50Z</time>
1899</trkpt>
1900<trkpt lat="51.16587752" lon="-2.078712614">
1901<time>2005-09-18T19:15:38Z</time>
1902</trkpt>
1903<trkpt lat="51.1684739" lon="-2.078755529">
1904<time>2005-09-18T19:16:15Z</time>
1905</trkpt>
1906<trkpt lat="51.16793746" lon="-2.079442175">
1907<time>2005-09-18T19:16:33Z</time>
1908</trkpt>
1909<trkpt lat="51.16778726" lon="-2.080772551">
1910<time>2005-09-18T19:16:46Z</time>
1911</trkpt>
1912<trkpt lat="51.16950387" lon="-2.082317504">
1913<time>2005-09-18T19:23:23Z</time>
1914</trkpt>
1915<trkpt lat="51.16778726" lon="-2.080343397">
1916<time>2005-09-18T19:23:52Z</time>
1917</trkpt>
1918<trkpt lat="51.16802329" lon="-2.079270513">
1919<time>2005-09-18T19:24:02Z</time>
1920</trkpt>
1921<trkpt lat="51.16868848" lon="-2.078691156">
1922<time>2005-09-18T19:24:14Z</time>
1923</trkpt>
1924<trkpt lat="51.16913909" lon="-2.078025968">
1925<time>2005-09-18T19:24:22Z</time>
1926</trkpt>
1927<trkpt lat="51.16963262" lon="-2.076545388">
1928<time>2005-09-18T19:24:54Z</time>
1929</trkpt>
1930<trkpt lat="51.16564149" lon="-2.066009668">
1931<time>2005-09-18T19:25:52Z</time>
1932</trkpt>
1933<trkpt lat="51.15733737" lon="-2.052298211">
1934<time>2005-09-18T19:27:09Z</time>
1935</trkpt>
1936<trkpt lat="51.15641469" lon="-2.049894951">
1937<time>2005-09-18T19:27:19Z</time>
1938</trkpt>
1939<trkpt lat="51.15444058" lon="-2.03742804">
1940<time>2005-09-18T19:28:06Z</time>
1941</trkpt>
1942<trkpt lat="51.15326041" lon="-2.034080642">
1943<time>2005-09-18T19:28:22Z</time>
1944</trkpt>
1945<trkpt lat="51.15171545" lon="-2.028287069">
1946<time>2005-09-18T19:28:46Z</time>
1947</trkpt>
1948<trkpt lat="51.14907616" lon="-2.024596348">
1949<time>2005-09-18T19:29:06Z</time>
1950</trkpt>
1951<trkpt lat="51.14868992" lon="-2.023244515">
1952<time>2005-09-18T19:29:12Z</time>
1953</trkpt>
1954<trkpt lat="51.14716643" lon="-1.995328075">
1955<time>2005-09-18T19:30:56Z</time>
1956</trkpt>
1957<trkpt lat="51.14665144" lon="-1.993096476">
1958<time>2005-09-18T19:31:06Z</time>
1959</trkpt>
1960<trkpt lat="51.14487046" lon="-1.988225583">
1961<time>2005-09-18T19:31:32Z</time>
1962</trkpt>
1963<trkpt lat="51.14452713" lon="-1.985693577">
1964<time>2005-09-18T19:31:44Z</time>
1965</trkpt>
1966<trkpt lat="51.14450567" lon="-1.983397605">
1967<time>2005-09-18T19:31:56Z</time>
1968</trkpt>
1969<trkpt lat="51.14517086" lon="-1.982303264">
1970<time>2005-09-18T19:32:06Z</time>
1971</trkpt>
1972<trkpt lat="51.14542835" lon="-1.981380584">
1973<time>2005-09-18T19:32:12Z</time>
1974</trkpt>
1975<trkpt lat="51.14508503" lon="-1.980736853">
1976<time>2005-09-18T19:32:17Z</time>
1977</trkpt>
1978<trkpt lat="51.14461296" lon="-1.980736853">
1979<time>2005-09-18T19:32:21Z</time>
1980</trkpt>
1981<trkpt lat="51.14293926" lon="-1.981702449">
1982<time>2005-09-18T19:32:35Z</time>
1983</trkpt>
1984<trkpt lat="51.14231699" lon="-1.982689502">
1985<time>2005-09-18T19:32:42Z</time>
1986</trkpt>
1987<trkpt lat="51.1420595" lon="-1.983547809">
1988<time>2005-09-18T19:32:46Z</time>
1989</trkpt>
1990<trkpt lat="51.14180201" lon="-1.985951069">
1991<time>2005-09-18T19:32:56Z</time>
1992</trkpt>
1993<trkpt lat="51.1422097" lon="-1.988847856">
1994<time>2005-09-18T19:33:12Z</time>
1995</trkpt>
1996<trkpt lat="51.14195221" lon="-1.989513044">
1997<time>2005-09-18T19:33:19Z</time>
1998</trkpt>
1999<trkpt lat="51.13905542" lon="-1.990156774">
2000<time>2005-09-18T19:33:57Z</time>
2001</trkpt>
2002<trkpt lat="51.13918417" lon="-1.989749078">
2003<time>2005-09-18T19:34:22Z</time>
2004</trkpt>
2005<trkpt lat="50.907055" lon="-1.409769484">
2006<time>2005-09-22T14:12:06Z</time>
2007</trkpt>
2008<trkpt lat="50.90716229" lon="-1.411335894">
2009<time>2005-09-22T14:12:15Z</time>
2010</trkpt>
2011<trkpt lat="50.90643273" lon="-1.414447258">
2012<time>2005-09-22T14:12:32Z</time>
2013</trkpt>
2014<trkpt lat="50.90643273" lon="-1.414962242">
2015<time>2005-09-22T14:12:36Z</time>
2016</trkpt>
2017<trkpt lat="50.90679751" lon="-1.416721771">
2018<time>2005-09-22T14:12:46Z</time>
2019</trkpt>
2020<trkpt lat="50.9069048" lon="-1.421935987">
2021<time>2005-09-22T14:13:11Z</time>
2022</trkpt>
2023<trkpt lat="50.90892182" lon="-1.428673698">
2024<time>2005-09-22T14:13:39Z</time>
2025</trkpt>
2026<trkpt lat="50.90932952" lon="-1.429510548">
2027<time>2005-09-22T14:13:43Z</time>
2028</trkpt>
2029<trkpt lat="50.91078864" lon="-1.431205705">
2030<time>2005-09-22T14:13:54Z</time>
2031</trkpt>
2032<trkpt lat="50.91267692" lon="-1.436312632">
2033<time>2005-09-22T14:14:16Z</time>
2034</trkpt>
2035<trkpt lat="50.91413604" lon="-1.449680766">
2036<time>2005-09-22T14:16:15Z</time>
2037</trkpt>
2038<trkpt lat="50.91477977" lon="-1.451933822">
2039<time>2005-09-22T14:16:25Z</time>
2040</trkpt>
2041<trkpt lat="50.92207538" lon="-1.469529119">
2042<time>2005-09-22T14:17:59Z</time>
2043</trkpt>
2044<trkpt lat="50.92209684" lon="-1.471138444">
2045<time>2005-09-22T14:18:06Z</time>
2046</trkpt>
2047<trkpt lat="50.92192517" lon="-1.472254244">
2048<time>2005-09-22T14:18:11Z</time>
2049</trkpt>
2050<trkpt lat="50.91995107" lon="-1.478841751">
2051<time>2005-09-22T14:19:11Z</time>
2052</trkpt>
2053<trkpt lat="50.91902839" lon="-1.479657143">
2054<time>2005-09-22T14:19:18Z</time>
2055</trkpt>
2056<trkpt lat="50.91797696" lon="-1.480107754">
2057<time>2005-09-22T14:19:25Z</time>
2058</trkpt>
2059<trkpt lat="50.91559516" lon="-1.483219117">
2060<time>2005-09-22T14:19:43Z</time>
2061</trkpt>
2062<trkpt lat="50.91280566" lon="-1.491845104">
2063<time>2005-09-22T14:20:21Z</time>
2064</trkpt>
2065<trkpt lat="50.9124838" lon="-1.492274258">
2066<time>2005-09-22T14:20:25Z</time>
2067</trkpt>
2068<trkpt lat="50.91205464" lon="-1.493196938">
2069<time>2005-09-22T14:20:31Z</time>
2070</trkpt>
2071<trkpt lat="50.91042386" lon="-1.494870637">
2072<time>2005-09-22T14:20:43Z</time>
2073</trkpt>
2074<trkpt lat="50.90591775" lon="-1.498346781">
2075<time>2005-09-22T14:21:11Z</time>
2076</trkpt>
2077<trkpt lat="50.90289221" lon="-1.502080417">
2078<time>2005-09-22T14:21:37Z</time>
2079</trkpt>
2080<trkpt lat="50.90274201" lon="-1.502745605">
2081<time>2005-09-22T14:21:44Z</time>
2082</trkpt>
2083<trkpt lat="50.90325699" lon="-1.503217674">
2084<time>2005-09-22T14:21:50Z</time>
2085</trkpt>
2086<trkpt lat="50.90465174" lon="-1.503432251">
2087<time>2005-09-22T14:22:01Z</time>
2088</trkpt>
2089<trkpt lat="50.9076129" lon="-1.508346059">
2090<time>2005-09-22T14:22:34Z</time>
2091</trkpt>
2092<trkpt lat="50.91149674" lon="-1.511586169">
2093<time>2005-09-22T14:22:59Z</time>
2094</trkpt>
2095<trkpt lat="50.91235505" lon="-1.513109664">
2096<time>2005-09-22T14:23:06Z</time>
2097</trkpt>
2098<trkpt lat="50.91284858" lon="-1.515255432">
2099<time>2005-09-22T14:23:14Z</time>
2100</trkpt>
2101<trkpt lat="50.91308461" lon="-1.518860322">
2102<time>2005-09-22T14:23:31Z</time>
2103</trkpt>
2104<trkpt lat="50.91364251" lon="-1.520984632">
2105<time>2005-09-22T14:23:42Z</time>
2106</trkpt>
2107<trkpt lat="50.91450082" lon="-1.522272092">
2108<time>2005-09-22T14:23:50Z</time>
2109</trkpt>
2110<trkpt lat="50.91510163" lon="-1.522872907">
2111<time>2005-09-22T14:23:57Z</time>
2112</trkpt>
2113<trkpt lat="50.92029439" lon="-1.525297625">
2114<time>2005-09-22T14:24:31Z</time>
2115</trkpt>
2116<trkpt lat="50.92351304" lon="-1.525576575">
2117<time>2005-09-22T14:24:52Z</time>
2118</trkpt>
2119<trkpt lat="50.9240924" lon="-1.525812609">
2120<time>2005-09-22T14:25:00Z</time>
2121</trkpt>
2122<trkpt lat="50.93237506" lon="-1.522937281">
2123<time>2005-09-22T14:25:46Z</time>
2124</trkpt>
2125<trkpt lat="50.93417751" lon="-1.523323519">
2126<time>2005-09-22T14:25:55Z</time>
2127</trkpt>
2128<trkpt lat="50.93585121" lon="-1.524460776">
2129<time>2005-09-22T14:26:04Z</time>
2130</trkpt>
2131<trkpt lat="50.93797552" lon="-1.526756747">
2132<time>2005-09-22T14:26:17Z</time>
2133</trkpt>
2134<trkpt lat="50.93977796" lon="-1.528001293">
2135<time>2005-09-22T14:26:27Z</time>
2136</trkpt>
2137<trkpt lat="50.94473469" lon="-1.529632076">
2138<time>2005-09-22T14:26:56Z</time>
2139</trkpt>
2140<trkpt lat="50.94503509" lon="-1.530018314">
2141<time>2005-09-22T14:27:01Z</time>
2142</trkpt>
2143<trkpt lat="50.94522821" lon="-1.530404553">
2144<time>2005-09-22T14:27:04Z</time>
2145</trkpt>
2146<trkpt lat="50.94537842" lon="-1.531391606">
2147<time>2005-09-22T14:27:09Z</time>
2148</trkpt>
2149<trkpt lat="50.94484198" lon="-1.538086402">
2150<time>2005-09-22T14:27:31Z</time>
2151</trkpt>
2152<trkpt lat="50.942546" lon="-1.546004285">
2153<time>2005-09-22T14:27:55Z</time>
2154</trkpt>
2155<trkpt lat="50.9305297" lon="-1.567354675">
2156<time>2005-09-22T14:29:07Z</time>
2157</trkpt>
2158<trkpt lat="50.92810499" lon="-1.574714659">
2159<time>2005-09-22T14:29:28Z</time>
2160</trkpt>
2161<trkpt lat="50.92076646" lon="-1.588404658">
2162<time>2005-09-22T14:30:19Z</time>
2163</trkpt>
2164<trkpt lat="50.92046605" lon="-1.588469031">
2165<time>2005-09-22T14:30:23Z</time>
2166</trkpt>
2167<trkpt lat="50.91977941" lon="-1.589005473">
2168<time>2005-09-22T14:30:31Z</time>
2169</trkpt>
2170<trkpt lat="50.91986524" lon="-1.58986378">
2171<time>2005-09-22T14:30:36Z</time>
2172</trkpt>
2173<trkpt lat="50.92005836" lon="-1.590378764">
2174<time>2005-09-22T14:30:39Z</time>
2175</trkpt>
2176<trkpt lat="50.92070209" lon="-1.59078646">
2177<time>2005-09-22T14:30:45Z</time>
2178</trkpt>
2179<trkpt lat="50.92108833" lon="-1.591194156">
2180<time>2005-09-22T14:30:49Z</time>
2181</trkpt>
2182<trkpt lat="50.92286931" lon="-1.603467948">
2183<time>2005-09-22T14:31:52Z</time>
2184</trkpt>
2185<trkpt lat="50.92331992" lon="-1.604733951">
2186<time>2005-09-22T14:31:58Z</time>
2187</trkpt>
2188<trkpt lat="50.92458593" lon="-1.610463152">
2189<time>2005-09-22T14:32:25Z</time>
2190</trkpt>
2191<trkpt lat="50.92497217" lon="-1.611192713">
2192<time>2005-09-22T14:32:31Z</time>
2193</trkpt>
2194<trkpt lat="50.9252082" lon="-1.611450205">
2195<time>2005-09-22T14:32:34Z</time>
2196</trkpt>
2197<trkpt lat="50.92553006" lon="-1.612265597">
2198<time>2005-09-22T14:32:40Z</time>
2199</trkpt>
2200<trkpt lat="50.92866289" lon="-1.633208291">
2201<time>2005-09-22T14:34:12Z</time>
2202</trkpt>
2203<trkpt lat="50.93872654" lon="-1.651940844">
2204<time>2005-09-22T14:35:37Z</time>
2205</trkpt>
2206<trkpt lat="50.95087158" lon="-1.681166202">
2207<time>2005-09-22T14:39:10Z</time>
2208</trkpt>
2209<trkpt lat="50.95087158" lon="-1.681166202">
2210<time>2005-09-22T14:39:14Z</time>
2211</trkpt>
2212<trkpt lat="50.95085013" lon="-1.681101829">
2213<time>2005-09-22T14:39:31Z</time>
2214</trkpt>
2215<trkpt lat="50.95085013" lon="-1.681101829">
2216<time>2005-09-22T14:39:35Z</time>
2217</trkpt>
2218<trkpt lat="50.94951975" lon="-1.678119212">
2219<time>2005-09-22T14:40:09Z</time>
2220</trkpt>
2221<trkpt lat="50.95157969" lon="-1.691144023">
2222<time>2005-09-22T14:40:58Z</time>
2223</trkpt>
2224<trkpt lat="50.95155823" lon="-1.693354164">
2225<time>2005-09-22T14:41:05Z</time>
2226</trkpt>
2227<trkpt lat="50.94683754" lon="-1.720948739">
2228<time>2005-09-22T14:42:32Z</time>
2229</trkpt>
2230<trkpt lat="50.94679462" lon="-1.723115964">
2231<time>2005-09-22T14:42:40Z</time>
2232</trkpt>
2233<trkpt lat="50.94761002" lon="-1.726828143">
2234<time>2005-09-22T14:42:56Z</time>
2235</trkpt>
2236<trkpt lat="50.94743835" lon="-1.728029773">
2237<time>2005-09-22T14:43:02Z</time>
2238</trkpt>
2239<trkpt lat="50.94458448" lon="-1.732621716">
2240<time>2005-09-22T14:43:26Z</time>
2241</trkpt>
2242<trkpt lat="50.93754636" lon="-1.7388659">
2243<time>2005-09-22T14:44:09Z</time>
2244</trkpt>
2245<trkpt lat="50.93510019" lon="-1.742427875">
2246<time>2005-09-22T14:44:26Z</time>
2247</trkpt>
2248<trkpt lat="50.93434917" lon="-1.744423439">
2249<time>2005-09-22T14:44:34Z</time>
2250</trkpt>
2251<trkpt lat="50.93357669" lon="-1.750689081">
2252<time>2005-09-22T14:44:59Z</time>
2253</trkpt>
2254<trkpt lat="50.93132364" lon="-1.755238109">
2255<time>2005-09-22T14:45:29Z</time>
2256</trkpt>
2257<trkpt lat="50.92984306" lon="-1.760602529">
2258<time>2005-09-22T14:45:54Z</time>
2259</trkpt>
2260<trkpt lat="50.92952119" lon="-1.760988767">
2261<time>2005-09-22T14:45:57Z</time>
2262</trkpt>
2263<trkpt lat="50.92819082" lon="-1.761889989">
2264<time>2005-09-22T14:46:06Z</time>
2265</trkpt>
2266<trkpt lat="50.9270321" lon="-1.763241823">
2267<time>2005-09-22T14:46:15Z</time>
2268</trkpt>
2269<trkpt lat="50.92675315" lon="-1.76770502">
2270<time>2005-09-22T14:46:37Z</time>
2271</trkpt>
2272<trkpt lat="50.9270321" lon="-1.768456039">
2273<time>2005-09-22T14:46:42Z</time>
2274</trkpt>
2275<trkpt lat="50.92761146" lon="-1.768949566">
2276<time>2005-09-22T14:46:48Z</time>
2277</trkpt>
2278<trkpt lat="50.92782604" lon="-1.769700584">
2279<time>2005-09-22T14:46:52Z</time>
2280</trkpt>
2281<trkpt lat="50.92748271" lon="-1.777768672">
2282<time>2005-09-22T14:47:26Z</time>
2283</trkpt>
2284<trkpt lat="50.92789041" lon="-1.780300678">
2285<time>2005-09-22T14:47:37Z</time>
2286</trkpt>
2287<trkpt lat="50.92778312" lon="-1.781223358">
2288<time>2005-09-22T14:47:41Z</time>
2289</trkpt>
2290<trkpt lat="50.92690336" lon="-1.784570756">
2291<time>2005-09-22T14:47:56Z</time>
2292</trkpt>
2293<trkpt lat="50.92675315" lon="-1.787360254">
2294<time>2005-09-22T14:48:11Z</time>
2295</trkpt>
2296<trkpt lat="50.92686044" lon="-1.787939611">
2297<time>2005-09-22T14:48:16Z</time>
2298</trkpt>
2299<trkpt lat="50.92748271" lon="-1.78989226">
2300<time>2005-09-22T14:48:49Z</time>
2301</trkpt>
2302<trkpt lat="50.92668878" lon="-1.791673247">
2303<time>2005-09-22T14:49:24Z</time>
2304</trkpt>
2305<trkpt lat="50.92645274" lon="-1.792510097">
2306<time>2005-09-22T14:49:38Z</time>
2307</trkpt>
2308<trkpt lat="50.92671024" lon="-1.794097965">
2309<time>2005-09-22T14:49:50Z</time>
2310</trkpt>
2311<trkpt lat="50.92660295" lon="-1.79506356">
2312<time>2005-09-22T14:49:56Z</time>
2313</trkpt>
2314<trkpt lat="50.92679607" lon="-1.79626519">
2315<time>2005-09-22T14:50:03Z</time>
2316</trkpt>
2317<trkpt lat="50.92705356" lon="-1.796951836">
2318<time>2005-09-22T14:50:07Z</time>
2319</trkpt>
2320<trkpt lat="50.92722522" lon="-1.798003262">
2321<time>2005-09-22T14:50:12Z</time>
2322</trkpt>
2323<trkpt lat="50.92698919" lon="-1.801758356">
2324<time>2005-09-22T14:50:27Z</time>
2325</trkpt>
2326<trkpt lat="50.92720376" lon="-1.802874155">
2327<time>2005-09-22T14:50:32Z</time>
2328</trkpt>
2329<trkpt lat="50.92827665" lon="-1.804805347">
2330<time>2005-09-22T14:50:45Z</time>
2331</trkpt>
2332<trkpt lat="50.92857706" lon="-1.806350299">
2333<time>2005-09-22T14:50:58Z</time>
2334</trkpt>
2335<trkpt lat="50.92986452" lon="-1.809568951">
2336<time>2005-09-22T14:51:20Z</time>
2337</trkpt>
2338<trkpt lat="50.93226778" lon="-1.823409154">
2339<time>2005-09-22T14:52:27Z</time>
2340</trkpt>
2341<trkpt lat="50.93241798" lon="-1.823773934">
2342<time>2005-09-22T14:52:30Z</time>
2343</trkpt>
2344<trkpt lat="50.93934881" lon="-1.835210877">
2345<time>2005-09-22T14:53:43Z</time>
2346</trkpt>
2347<trkpt lat="50.94331848" lon="-1.838493902">
2348<time>2005-09-22T14:54:10Z</time>
2349</trkpt>
2350<trkpt lat="50.94507801" lon="-1.84091862">
2351<time>2005-09-22T14:54:28Z</time>
2352</trkpt>
2353<trkpt lat="50.94357597" lon="-1.843085845">
2354<time>2005-09-22T14:54:32Z</time>
2355</trkpt>
2356<trkpt lat="50.94284641" lon="-1.844823917">
2357<time>2005-09-22T14:54:42Z</time>
2358</trkpt>
2359<trkpt lat="50.94299662" lon="-1.845832428">
2360<time>2005-09-22T14:54:48Z</time>
2361</trkpt>
2362<trkpt lat="50.94316828" lon="-1.846304497">
2363<time>2005-09-22T14:54:51Z</time>
2364</trkpt>
2365<trkpt lat="50.94308245" lon="-1.849093995">
2366<time>2005-09-22T14:55:09Z</time>
2367</trkpt>
2368<trkpt lat="50.94555008" lon="-1.849501691">
2369<time>2005-09-22T14:55:24Z</time>
2370</trkpt>
2371<trkpt lat="50.94561445" lon="-1.849930845">
2372<time>2005-09-22T14:55:29Z</time>
2373</trkpt>
2374<trkpt lat="50.94432699" lon="-1.852999293">
2375<time>2005-09-22T14:55:57Z</time>
2376</trkpt>
2377<trkpt lat="50.94454157" lon="-1.853449904">
2378<time>2005-09-22T14:56:03Z</time>
2379</trkpt>
2380<trkpt lat="50.94548571" lon="-1.854351126">
2381<time>2005-09-22T14:56:17Z</time>
2382</trkpt>
2383<trkpt lat="50.94851124" lon="-1.859050358">
2384<time>2005-09-22T14:56:53Z</time>
2385</trkpt>
2386<trkpt lat="50.95024931" lon="-1.860681142">
2387<time>2005-09-22T14:57:07Z</time>
2388</trkpt>
2389<trkpt lat="50.95134365" lon="-1.862290467">
2390<time>2005-09-22T14:57:17Z</time>
2391</trkpt>
2392<trkpt lat="50.95183718" lon="-1.863384809">
2393<time>2005-09-22T14:57:23Z</time>
2394</trkpt>
2395<trkpt lat="50.95228779" lon="-1.865337458">
2396<time>2005-09-22T14:57:32Z</time>
2397</trkpt>
2398<trkpt lat="50.95275986" lon="-1.86615285">
2399<time>2005-09-22T14:57:37Z</time>
2400</trkpt>
2401<trkpt lat="50.95924008" lon="-1.874800294">
2402<time>2005-09-22T14:58:36Z</time>
2403</trkpt>
2404<trkpt lat="50.95949757" lon="-1.875551313">
2405<time>2005-09-22T14:58:40Z</time>
2406</trkpt>
2407<trkpt lat="50.96052754" lon="-1.877225012">
2408<time>2005-09-22T14:58:51Z</time>
2409</trkpt>
2410<trkpt lat="50.96145022" lon="-1.880765529">
2411<time>2005-09-22T14:59:09Z</time>
2412</trkpt>
2413<trkpt lat="50.96507657" lon="-1.886966798">
2414<time>2005-09-22T14:59:49Z</time>
2415</trkpt>
2416<trkpt lat="50.9669863" lon="-1.889198396">
2417<time>2005-09-22T15:00:06Z</time>
2418</trkpt>
2419<trkpt lat="50.97239363" lon="-1.892653083">
2420<time>2005-09-22T15:00:58Z</time>
2421</trkpt>
2422<trkpt lat="50.97411025" lon="-1.895270919">
2423<time>2005-09-22T15:01:18Z</time>
2424</trkpt>
2425<trkpt lat="50.97389567" lon="-1.899605371">
2426<time>2005-09-22T15:01:40Z</time>
2427</trkpt>
2428<trkpt lat="50.97396005" lon="-1.900270559">
2429<time>2005-09-22T15:01:44Z</time>
2430</trkpt>
2431<trkpt lat="50.97406733" lon="-1.900764085">
2432<time>2005-09-22T15:01:47Z</time>
2433</trkpt>
2434<trkpt lat="50.97499001" lon="-1.902909853">
2435<time>2005-09-22T15:02:03Z</time>
2436</trkpt>
2437<trkpt lat="50.97735036" lon="-1.905634978">
2438<time>2005-09-22T15:02:32Z</time>
2439</trkpt>
2440<trkpt lat="50.978037" lon="-1.907072643">
2441<time>2005-09-22T15:02:41Z</time>
2442</trkpt>
2443<trkpt lat="50.97840178" lon="-1.908510307">
2444<time>2005-09-22T15:02:49Z</time>
2445</trkpt>
2446<trkpt lat="50.98449577" lon="-1.922178848">
2447<time>2005-09-22T15:04:05Z</time>
2448</trkpt>
2449<trkpt lat="50.98876584" lon="-1.928465948">
2450<time>2005-09-22T15:04:51Z</time>
2451</trkpt>
2452<trkpt lat="50.99033225" lon="-1.932306873">
2453<time>2005-09-22T15:05:24Z</time>
2454</trkpt>
2455<trkpt lat="50.99425901" lon="-1.938036073">
2456<time>2005-09-22T15:06:29Z</time>
2457</trkpt>
2458<trkpt lat="50.99535335" lon="-1.940503706">
2459<time>2005-09-22T15:06:43Z</time>
2460</trkpt>
2461<trkpt lat="51.00237001" lon="-1.948249928">
2462<time>2005-09-22T15:08:10Z</time>
2463</trkpt>
2464<trkpt lat="51.00696195" lon="-1.951082342">
2465<time>2005-09-22T15:08:47Z</time>
2466</trkpt>
2467<trkpt lat="51.00904335" lon="-1.95118963">
2468<time>2005-09-22T15:09:06Z</time>
2469</trkpt>
2470<trkpt lat="51.02318396" lon="-1.944215884">
2471<time>2005-09-22T15:11:18Z</time>
2472</trkpt>
2473<trkpt lat="51.02569451" lon="-1.944988361">
2474<time>2005-09-22T15:11:42Z</time>
2475</trkpt>
2476<trkpt lat="51.02603783" lon="-1.944473377">
2477<time>2005-09-22T15:11:49Z</time>
2478</trkpt>
2479<trkpt lat="51.02633824" lon="-1.93981706">
2480<time>2005-09-22T15:12:23Z</time>
2481</trkpt>
2482<trkpt lat="51.02668156" lon="-1.93889438">
2483<time>2005-09-22T15:12:37Z</time>
2484</trkpt>
2485<trkpt lat="51.02788319" lon="-1.937628377">
2486<time>2005-09-22T15:13:05Z</time>
2487</trkpt>
2488<trkpt lat="51.02788319" lon="-1.937628377">
2489<time>2005-09-22T15:13:07Z</time>
2490</trkpt>
2491<trkpt lat="51.02618804" lon="-1.939366449">
2492<time>2005-09-22T15:13:52Z</time>
2493</trkpt>
2494<trkpt lat="51.02599492" lon="-1.941147436">
2495<time>2005-09-22T15:31:25Z</time>
2496</trkpt>
2497<trkpt lat="51.02687468" lon="-1.941640963">
2498<time>2005-09-22T15:32:42Z</time>
2499</trkpt>
2500<trkpt lat="51.02738967" lon="-1.94222032">
2501<time>2005-09-22T15:33:34Z</time>
2502</trkpt>
2503<trkpt lat="51.02738967" lon="-1.94222032">
2504<time>2005-09-22T15:33:40Z</time>
2505</trkpt>
2506<trkpt lat="51.02700343" lon="-1.943185916">
2507<time>2005-09-22T15:35:40Z</time>
2508</trkpt>
2509<trkpt lat="51.02683177" lon="-1.946211448">
2510<time>2005-09-22T15:38:10Z</time>
2511</trkpt>
2512<trkpt lat="51.02696051" lon="-1.947091213">
2513<time>2005-09-22T15:38:59Z</time>
2514</trkpt>
2515<trkpt lat="51.02708926" lon="-1.947498909">
2516<time>2005-09-22T15:39:20Z</time>
2517</trkpt>
2518<trkpt lat="51.02726092" lon="-1.948743455">
2519<time>2005-09-22T15:40:28Z</time>
2520</trkpt>
2521<trkpt lat="51.02659573" lon="-1.948271386">
2522<time>2005-09-22T15:43:26Z</time>
2523</trkpt>
2524<trkpt lat="51.02543702" lon="-1.950674646">
2525<time>2005-09-22T15:47:56Z</time>
2526</trkpt>
2527<trkpt lat="51.02502932" lon="-1.951254003">
2528<time>2005-09-22T15:48:50Z</time>
2529</trkpt>
2530<trkpt lat="51.01955761" lon="-1.955760115">
2531<time>2005-09-22T15:57:15Z</time>
2532</trkpt>
2533<trkpt lat="51.01739039" lon="-1.955502623">
2534<time>2005-09-22T16:00:38Z</time>
2535</trkpt>
2536<trkpt lat="51.01644625" lon="-1.955888862">
2537<time>2005-09-22T16:02:39Z</time>
2538</trkpt>
2539<trkpt lat="51.0161673" lon="-1.956103438">
2540<time>2005-09-22T16:02:59Z</time>
2541</trkpt>
2542<trkpt lat="51.01423611" lon="-1.959558125">
2543<time>2005-09-22T16:08:54Z</time>
2544</trkpt>
2545<trkpt lat="51.01423611" lon="-1.959558125">
2546<time>2005-09-22T16:09:38Z</time>
2547</trkpt>
2548<trkpt lat="51.01397862" lon="-1.960309143">
2549<time>2005-09-22T16:11:42Z</time>
2550</trkpt>
2551<trkpt lat="51.01397862" lon="-1.960309143">
2552<time>2005-09-22T16:12:44Z</time>
2553</trkpt>
2554<trkpt lat="51.01391424" lon="-1.960352059">
2555<time>2005-09-22T16:15:52Z</time>
2556</trkpt>
2557<trkpt lat="51.01391424" lon="-1.960352059">
2558<time>2005-09-22T16:16:28Z</time>
2559</trkpt>
2560<trkpt lat="51.01121058" lon="-1.963613626">
2561<time>2005-09-22T16:20:25Z</time>
2562</trkpt>
2563<trkpt lat="51.00996603" lon="-1.966982481">
2564<time>2005-09-22T16:23:48Z</time>
2565</trkpt>
2566<trkpt lat="51.01084579" lon="-1.968205569">
2567<time>2005-09-22T16:25:24Z</time>
2568</trkpt>
2569<trkpt lat="51.01065268" lon="-1.969235538">
2570<time>2005-09-22T16:26:36Z</time>
2571</trkpt>
2572<trkpt lat="51.0102879" lon="-1.97013676">
2573<time>2005-09-22T16:27:43Z</time>
2574</trkpt>
2575<trkpt lat="51.0102879" lon="-1.97013676">
2576<time>2005-09-22T16:27:44Z</time>
2577</trkpt>
2578<trkpt lat="51.01020206" lon="-1.970565914">
2579<time>2005-09-22T16:28:04Z</time>
2580</trkpt>
2581<trkpt lat="51.00897898" lon="-1.972582935">
2582<time>2005-09-22T16:30:10Z</time>
2583</trkpt>
2584<trkpt lat="51.0076486" lon="-1.973291039">
2585<time>2005-09-22T16:31:52Z</time>
2586</trkpt>
2587<trkpt lat="51.00715507" lon="-1.973934769">
2588<time>2005-09-22T16:32:54Z</time>
2589</trkpt>
2590<trkpt lat="51.00696195" lon="-1.97429955">
2591<time>2005-09-22T16:33:17Z</time>
2592</trkpt>
2593<trkpt lat="51.00554575" lon="-1.975629926">
2594<time>2005-09-22T16:36:06Z</time>
2595</trkpt>
2596<trkpt lat="51.00498785" lon="-1.976810098">
2597<time>2005-09-22T16:37:53Z</time>
2598</trkpt>
2599<trkpt lat="51.00466598" lon="-1.977925897">
2600<time>2005-09-22T16:38:57Z</time>
2601</trkpt>
2602<trkpt lat="51.00367893" lon="-1.979900004">
2603<time>2005-09-22T16:41:37Z</time>
2604</trkpt>
2605<trkpt lat="51.00451578" lon="-1.97799027">
2606<time>2005-09-22T16:43:06Z</time>
2607</trkpt>
2608<trkpt lat="51.00509514" lon="-1.975994706">
2609<time>2005-09-22T16:45:02Z</time>
2610</trkpt>
2611<trkpt lat="51.00267042" lon="-1.974921822">
2612<time>2005-09-22T16:48:49Z</time>
2613</trkpt>
2614<trkpt lat="51.00237001" lon="-1.975458264">
2615<time>2005-09-22T16:50:42Z</time>
2616</trkpt>
2617<trkpt lat="51.00234855" lon="-1.974599957">
2618<time>2005-09-22T16:51:57Z</time>
2619</trkpt>
2620<trkpt lat="51.0017692" lon="-1.97429955">
2621<time>2005-09-22T17:00:39Z</time>
2622</trkpt>
2623<trkpt lat="51.00159754" lon="-1.973956227">
2624<time>2005-09-22T17:01:15Z</time>
2625</trkpt>
2626<trkpt lat="51.00078214" lon="-1.973055004">
2627<time>2005-09-22T17:03:53Z</time>
2628</trkpt>
2629<trkpt lat="51.00078214" lon="-1.973055004">
2630<time>2005-09-22T17:03:54Z</time>
2631</trkpt>
2632<trkpt lat="51.00071777" lon="-1.973012089">
2633<time>2005-09-22T17:04:08Z</time>
2634</trkpt>
2635<trkpt lat="51.00071777" lon="-1.973012089">
2636<time>2005-09-22T17:04:42Z</time>
2637</trkpt>
2638<trkpt lat="51.00052465" lon="-1.972840428">
2639<time>2005-09-22T17:05:12Z</time>
2640</trkpt>
2641<trkpt lat="50.99792827" lon="-1.970093845">
2642<time>2005-09-22T17:10:21Z</time>
2643</trkpt>
2644<trkpt lat="50.99588979" lon="-1.967132685">
2645<time>2005-09-22T17:13:30Z</time>
2646</trkpt>
2647<trkpt lat="50.99494565" lon="-1.966853735">
2648<time>2005-09-22T17:14:35Z</time>
2649</trkpt>
2650<trkpt lat="50.99494565" lon="-1.966853735">
2651<time>2005-09-22T17:14:51Z</time>
2652</trkpt>
2653<trkpt lat="50.99402297" lon="-1.96708977">
2654<time>2005-09-22T17:16:40Z</time>
2655</trkpt>
2656<trkpt lat="50.99445213" lon="-1.965823767">
2657<time>2005-09-22T17:18:49Z</time>
2658</trkpt>
2659<trkpt lat="50.99370111" lon="-1.968055365">
2660<time>2005-09-22T17:21:34Z</time>
2661</trkpt>
2662<trkpt lat="50.99164117" lon="-1.985886696">
2663<time>2005-09-22T17:37:04Z</time>
2664</trkpt>
2665<trkpt lat="50.99136222" lon="-1.987388734">
2666<time>2005-09-22T17:38:43Z</time>
2667</trkpt>
2668<trkpt lat="50.99091161" lon="-1.99056447">
2669<time>2005-09-22T17:43:56Z</time>
2670</trkpt>
2671<trkpt lat="50.99423755" lon="-2.007709155">
2672<time>2005-09-22T17:57:59Z</time>
2673</trkpt>
2674<trkpt lat="50.99385131" lon="-2.01431812">
2675<time>2005-09-22T18:03:50Z</time>
2676</trkpt>
2677<trkpt lat="50.99398006" lon="-2.015734327">
2678<time>2005-09-22T18:05:00Z</time>
2679</trkpt>
2680<trkpt lat="50.99382986" lon="-2.024617806">
2681<time>2005-09-22T18:12:29Z</time>
2682</trkpt>
2683<trkpt lat="50.99382986" lon="-2.024617806">
2684<time>2005-09-22T18:12:57Z</time>
2685</trkpt>
2686<trkpt lat="50.99462379" lon="-2.025583402">
2687<time>2005-09-22T18:14:27Z</time>
2688</trkpt>
2689<trkpt lat="50.99552501" lon="-2.025540486">
2690<time>2005-09-22T18:17:17Z</time>
2691</trkpt>
2692<trkpt lat="50.998572" lon="-2.026055471">
2693<time>2005-09-22T18:22:20Z</time>
2694</trkpt>
2695<trkpt lat="50.99848617" lon="-2.024918214">
2696<time>2005-09-22T18:23:16Z</time>
2697</trkpt>
2698<trkpt lat="50.99893678" lon="-2.024896756">
2699<time>2005-09-22T18:23:50Z</time>
2700</trkpt>
2701<trkpt lat="50.99923719" lon="-2.025025502">
2702<time>2005-09-22T18:24:11Z</time>
2703</trkpt>
2704<trkpt lat="50.9991299" lon="-2.024360314">
2705<time>2005-09-22T18:24:54Z</time>
2706</trkpt>
2707<trkpt lat="50.99994529" lon="-2.024553433">
2708<time>2005-09-22T18:25:53Z</time>
2709</trkpt>
2710<trkpt lat="51.00376476" lon="-2.023437634">
2711<time>2005-09-22T18:30:55Z</time>
2712</trkpt>
2713<trkpt lat="51.0111462" lon="-2.024167195">
2714<time>2005-09-22T18:41:18Z</time>
2715</trkpt>
2716<trkpt lat="51.0111462" lon="-2.024167195">
2717<time>2005-09-22T18:41:19Z</time>
2718</trkpt>
2719<trkpt lat="51.01086725" lon="-2.02421011">
2720<time>2005-09-22T18:41:45Z</time>
2721</trkpt>
2722<trkpt lat="51.01333489" lon="-2.024038449">
2723<time>2005-09-22T18:44:54Z</time>
2724</trkpt>
2725<trkpt lat="51.01404299" lon="-2.023695126">
2726<time>2005-09-22T18:45:47Z</time>
2727</trkpt>
2728<trkpt lat="51.01397862" lon="-2.026291505">
2729<time>2005-09-22T18:48:08Z</time>
2730</trkpt>
2731<trkpt lat="51.01425757" lon="-2.026377336">
2732<time>2005-09-22T18:48:27Z</time>
2733</trkpt>
2734<trkpt lat="51.01455797" lon="-2.026570455">
2735<time>2005-09-22T18:48:49Z</time>
2736</trkpt>
2737<trkpt lat="51.01556648" lon="-2.026484624">
2738<time>2005-09-22T18:49:56Z</time>
2739</trkpt>
2740<trkpt lat="51.01213326" lon="-2.030819075">
2741<time>2005-09-22T18:53:03Z</time>
2742</trkpt>
2743<trkpt lat="51.01101746" lon="-2.033286708">
2744<time>2005-09-22T18:54:31Z</time>
2745</trkpt>
2746<trkpt lat="51.01065268" lon="-2.033737319">
2747<time>2005-09-22T18:54:40Z</time>
2748</trkpt>
2749<trkpt lat="51.01011623" lon="-2.034702915">
2750<time>2005-09-22T18:55:33Z</time>
2751</trkpt>
2752<trkpt lat="51.00968708" lon="-2.034166473">
2753<time>2005-09-22T18:56:49Z</time>
2754</trkpt>
2755<trkpt lat="51.00906481" lon="-2.033844608">
2756<time>2005-09-22T20:06:50Z</time>
2757</trkpt>
2758<trkpt lat="51.00951542" lon="-2.034123558">
2759<time>2005-09-22T20:08:08Z</time>
2760</trkpt>
2761<trkpt lat="51.00992311" lon="-2.034187931">
2762<time>2005-09-22T20:08:25Z</time>
2763</trkpt>
2764<trkpt lat="51.01024498" lon="-2.034896034">
2765<time>2005-09-22T20:08:51Z</time>
2766</trkpt>
2767<trkpt lat="51.01316322" lon="-2.03650536">
2768<time>2005-09-22T20:09:35Z</time>
2769</trkpt>
2770<trkpt lat="51.01361384" lon="-2.035625595">
2771<time>2005-09-22T20:09:43Z</time>
2772</trkpt>
2773<trkpt lat="51.01395716" lon="-2.035797257">
2774<time>2005-09-22T20:09:50Z</time>
2775</trkpt>
2776<trkpt lat="51.01425757" lon="-2.036119122">
2777<time>2005-09-22T20:09:55Z</time>
2778</trkpt>
2779<trkpt lat="51.01872076" lon="-2.038651128">
2780<time>2005-09-22T20:11:00Z</time>
2781</trkpt>
2782<trkpt lat="51.02326979" lon="-2.048564575">
2783<time>2005-09-22T20:12:16Z</time>
2784</trkpt>
2785<trkpt lat="51.02359166" lon="-2.050130986">
2786<time>2005-09-22T20:12:26Z</time>
2787</trkpt>
2788<trkpt lat="51.02511515" lon="-2.052062177">
2789<time>2005-09-22T20:18:18Z</time>
2790</trkpt>
2791<trkpt lat="51.02520098" lon="-2.052920484">
2792<time>2005-09-22T20:18:27Z</time>
2793</trkpt>
2794<trkpt lat="51.02425684" lon="-2.056117678">
2795<time>2005-09-22T20:18:56Z</time>
2796</trkpt>
2797<trkpt lat="51.02500786" lon="-2.055259371">
2798<time>2005-09-22T20:19:18Z</time>
2799</trkpt>
2800<trkpt lat="51.02563014" lon="-2.054787302">
2801<time>2005-09-22T20:19:25Z</time>
2802</trkpt>
2803<trkpt lat="51.02633824" lon="-2.05452981">
2804<time>2005-09-22T20:19:33Z</time>
2805</trkpt>
2806<trkpt lat="51.0270678" lon="-2.05480876">
2807<time>2005-09-22T20:19:46Z</time>
2808</trkpt>
2809<trkpt lat="51.02696051" lon="-2.055216456">
2810<time>2005-09-22T20:19:56Z</time>
2811</trkpt>
2812<trkpt lat="51.02758278" lon="-2.056310797">
2813<time>2005-09-22T20:20:08Z</time>
2814</trkpt>
2815<trkpt lat="51.03110184" lon="-2.059078838">
2816<time>2005-09-22T20:20:46Z</time>
2817</trkpt>
2818<trkpt lat="51.03230347" lon="-2.060559418">
2819<time>2005-09-22T20:21:02Z</time>
2820</trkpt>
2821<trkpt lat="51.03258242" lon="-2.061246063">
2822<time>2005-09-22T20:21:13Z</time>
2823</trkpt>
2824<trkpt lat="51.03299012" lon="-2.060087349">
2825<time>2005-09-22T20:21:29Z</time>
2826</trkpt>
2827<trkpt lat="51.03489985" lon="-2.056804324">
2828<time>2005-09-22T20:21:54Z</time>
2829</trkpt>
2830<trkpt lat="51.03710999" lon="-2.048972271">
2831<time>2005-09-22T20:22:34Z</time>
2832</trkpt>
2833<trkpt lat="51.0379683" lon="-2.044037005">
2834<time>2005-09-22T20:22:58Z</time>
2835</trkpt>
2836<trkpt lat="51.0385262" lon="-2.043243071">
2837<time>2005-09-22T20:23:05Z</time>
2838</trkpt>
2839<trkpt lat="51.04017844" lon="-2.042449137">
2840<time>2005-09-22T20:23:19Z</time>
2841</trkpt>
2842<trkpt lat="51.04067197" lon="-2.041783949">
2843<time>2005-09-22T20:23:25Z</time>
2844</trkpt>
2845<trkpt lat="51.04150882" lon="-2.039960046">
2846<time>2005-09-22T20:23:38Z</time>
2847</trkpt>
2848<trkpt lat="51.04781738" lon="-2.030969279">
2849<time>2005-09-22T20:24:39Z</time>
2850</trkpt>
2851<trkpt lat="51.04850402" lon="-2.029467241">
2852<time>2005-09-22T20:24:48Z</time>
2853</trkpt>
2854<trkpt lat="51.05082145" lon="-2.021914139">
2855<time>2005-09-22T20:25:28Z</time>
2856</trkpt>
2857<trkpt lat="51.05144372" lon="-2.010048042">
2858<time>2005-09-22T20:26:18Z</time>
2859</trkpt>
2860<trkpt lat="51.05356803" lon="-1.993590003">
2861<time>2005-09-22T20:27:31Z</time>
2862</trkpt>
2863<trkpt lat="51.05434051" lon="-1.992366915">
2864<time>2005-09-22T20:27:39Z</time>
2865</trkpt>
2866<trkpt lat="51.05599275" lon="-1.991873389">
2867<time>2005-09-22T20:27:52Z</time>
2868</trkpt>
2869<trkpt lat="51.05640045" lon="-1.991315489">
2870<time>2005-09-22T20:27:58Z</time>
2871</trkpt>
2872<trkpt lat="51.05813852" lon="-1.98631585">
2873<time>2005-09-22T20:28:26Z</time>
2874</trkpt>
2875<trkpt lat="51.0603272" lon="-1.982410552">
2876<time>2005-09-22T20:28:50Z</time>
2877</trkpt>
2878<trkpt lat="51.06243005" lon="-1.97438538">
2879<time>2005-09-22T20:29:29Z</time>
2880</trkpt>
2881<trkpt lat="51.06290212" lon="-1.962197419">
2882<time>2005-09-22T20:30:24Z</time>
2883</trkpt>
2884<trkpt lat="51.06373897" lon="-1.959794159">
2885<time>2005-09-22T20:30:36Z</time>
2886</trkpt>
2887<trkpt lat="51.06388918" lon="-1.959021683">
2888<time>2005-09-22T20:30:40Z</time>
2889</trkpt>
2890<trkpt lat="51.06337419" lon="-1.953378313">
2891<time>2005-09-22T20:31:07Z</time>
2892</trkpt>
2893<trkpt lat="51.06363168" lon="-1.952283972">
2894<time>2005-09-22T20:31:13Z</time>
2895</trkpt>
2896<trkpt lat="51.06560579" lon="-1.947799317">
2897<time>2005-09-22T20:31:38Z</time>
2898</trkpt>
2899<trkpt lat="51.06609932" lon="-1.945288768">
2900<time>2005-09-22T20:31:50Z</time>
2901</trkpt>
2902<trkpt lat="51.0694038" lon="-1.939066042">
2903<time>2005-09-22T20:32:26Z</time>
2904</trkpt>
2905<trkpt lat="51.0744249" lon="-1.921728237">
2906<time>2005-09-22T20:33:52Z</time>
2907</trkpt>
2908<trkpt lat="51.07506863" lon="-1.920526607">
2909<time>2005-09-22T20:33:59Z</time>
2910</trkpt>
2911<trkpt lat="51.07781521" lon="-1.919196231">
2912<time>2005-09-22T20:34:21Z</time>
2913</trkpt>
2914<trkpt lat="51.07878081" lon="-1.919088943">
2915<time>2005-09-22T20:34:28Z</time>
2916</trkpt>
2917<trkpt lat="51.08163468" lon="-1.919818504">
2918<time>2005-09-22T20:34:51Z</time>
2919</trkpt>
2920<trkpt lat="51.08195654" lon="-1.919453723">
2921<time>2005-09-22T20:34:58Z</time>
2922</trkpt>
2923<trkpt lat="51.08172051" lon="-1.918488128">
2924<time>2005-09-22T20:35:06Z</time>
2925</trkpt>
2926<trkpt lat="51.08163468" lon="-1.916685683">
2927<time>2005-09-22T20:35:17Z</time>
2928</trkpt>
2929<trkpt lat="51.08199946" lon="-1.913037877">
2930<time>2005-09-22T20:37:17Z</time>
2931</trkpt>
2932<trkpt lat="51.08229986" lon="-1.912501435">
2933<time>2005-09-22T20:40:54Z</time>
2934</trkpt>
2935<trkpt lat="51.08275048" lon="-1.908703426">
2936<time>2005-09-22T20:41:15Z</time>
2937</trkpt>
2938<trkpt lat="51.08262173" lon="-1.906064132">
2939<time>2005-09-22T20:41:27Z</time>
2940</trkpt>
2941<trkpt lat="51.07948891" lon="-1.896579838">
2942<time>2005-09-22T20:42:14Z</time>
2943</trkpt>
2944<trkpt lat="51.07936016" lon="-1.894519901">
2945<time>2005-09-22T20:42:23Z</time>
2946</trkpt>
2947<trkpt lat="51.08051888" lon="-1.881795497">
2948<time>2005-09-22T20:43:15Z</time>
2949</trkpt>
2950<trkpt lat="51.08041159" lon="-1.879778476">
2951<time>2005-09-22T20:43:24Z</time>
2952</trkpt>
2953<trkpt lat="51.08154885" lon="-1.874907583">
2954<time>2005-09-22T20:43:49Z</time>
2955</trkpt>
2956<trkpt lat="51.08236424" lon="-1.867569056">
2957<time>2005-09-22T20:44:29Z</time>
2958</trkpt>
2959<trkpt lat="51.08221403" lon="-1.866710749">
2960<time>2005-09-22T20:44:36Z</time>
2961</trkpt>
2962<trkpt lat="51.07955328" lon="-1.863127317">
2963<time>2005-09-22T20:45:11Z</time>
2964</trkpt>
2965<trkpt lat="51.07944599" lon="-1.862311925">
2966<time>2005-09-22T20:45:17Z</time>
2967</trkpt>
2968<trkpt lat="51.07957474" lon="-1.861367787">
2969<time>2005-09-22T20:45:24Z</time>
2970</trkpt>
2971<trkpt lat="51.07938162" lon="-1.860359276">
2972<time>2005-09-22T20:45:32Z</time>
2973</trkpt>
2974<trkpt lat="51.07948891" lon="-1.859608258">
2975<time>2005-09-22T20:45:37Z</time>
2976</trkpt>
2977<trkpt lat="51.07991806" lon="-1.858449543">
2978<time>2005-09-22T20:45:44Z</time>
2979</trkpt>
2980<trkpt lat="51.08028284" lon="-1.857848728">
2981<time>2005-09-22T20:45:48Z</time>
2982</trkpt>
2983<trkpt lat="51.08152739" lon="-1.856561267">
2984<time>2005-09-22T20:46:00Z</time>
2985</trkpt>
2986<trkpt lat="51.08184925" lon="-1.856346691">
2987<time>2005-09-22T20:46:05Z</time>
2988</trkpt>
2989<trkpt lat="51.08144156" lon="-1.854479872">
2990<time>2005-09-22T20:46:21Z</time>
2991</trkpt>
2992<trkpt lat="51.08092657" lon="-1.847549042">
2993<time>2005-09-22T20:47:04Z</time>
2994</trkpt>
2995<trkpt lat="51.0692536" lon="-1.852892004">
2996<time>2005-09-22T20:48:32Z</time>
2997</trkpt>
2998<trkpt lat="51.06895319" lon="-1.852763258">
2999<time>2005-09-22T20:48:36Z</time>
3000</trkpt>
3001<trkpt lat="51.06292358" lon="-1.834438401">
3002<time>2005-09-22T20:50:00Z</time>
3003</trkpt>
3004<trkpt lat="51.06279483" lon="-1.82898815">
3005<time>2005-09-22T20:50:24Z</time>
3006</trkpt>
3007<trkpt lat="51.06232277" lon="-1.826949671">
3008<time>2005-09-22T20:50:33Z</time>
3009</trkpt>
3010<trkpt lat="51.06212965" lon="-1.825061395">
3011<time>2005-09-22T20:50:42Z</time>
3012</trkpt>
3013<trkpt lat="51.06193653" lon="-1.813495706">
3014<time>2005-09-22T20:52:06Z</time>
3015</trkpt>
3016<trkpt lat="51.06101385" lon="-1.806886741">
3017<time>2005-09-22T20:52:38Z</time>
3018</trkpt>
3019<trkpt lat="51.05991951" lon="-1.803925582">
3020<time>2005-09-22T20:52:58Z</time>
3021</trkpt>
3022<trkpt lat="51.05972639" lon="-1.80227334">
3023<time>2005-09-22T20:53:06Z</time>
3024</trkpt>
3025<trkpt lat="51.05820289" lon="-1.795127933">
3026<time>2005-09-22T20:53:51Z</time>
3027</trkpt>
3028<trkpt lat="51.05837455" lon="-1.794720238">
3029<time>2005-09-22T20:53:56Z</time>
3030</trkpt>
3031<trkpt lat="51.05869642" lon="-1.794570034">
3032<time>2005-09-22T20:54:00Z</time>
3033</trkpt>
3034<trkpt lat="51.06135717" lon="-1.794634407">
3035<time>2005-09-22T20:54:20Z</time>
3036</trkpt>
3037<trkpt lat="51.06182924" lon="-1.794784611">
3038<time>2005-09-22T20:54:27Z</time>
3039</trkpt>
3040<trkpt lat="51.06189361" lon="-1.794291084">
3041<time>2005-09-22T20:54:32Z</time>
3042</trkpt>
3043<trkpt lat="51.06187215" lon="-1.793475692">
3044<time>2005-09-22T20:54:38Z</time>
3045</trkpt>
3046<trkpt lat="51.06245151" lon="-1.791887824">
3047<time>2005-09-22T20:54:47Z</time>
3048</trkpt>
3049<trkpt lat="51.06350294" lon="-1.790299956">
3050<time>2005-09-22T20:54:57Z</time>
3051</trkpt>
3052<trkpt lat="51.06401792" lon="-1.789784972">
3053<time>2005-09-22T20:55:02Z</time>
3054</trkpt>
3055<trkpt lat="51.06453291" lon="-1.789548937">
3056<time>2005-09-22T20:55:10Z</time>
3057</trkpt>
3058<trkpt lat="51.06429687" lon="-1.788518968">
3059<time>2005-09-22T20:55:19Z</time>
3060</trkpt>
3061<trkpt lat="51.06320253" lon="-1.781330646">
3062<time>2005-09-22T20:55:52Z</time>
3063</trkpt>
3064<trkpt lat="50.8371888" lon="-1.572568891">
3065<time>2005-09-24T15:00:40Z</time>
3066</trkpt>
3067<trkpt lat="50.86452588" lon="-1.572504518">
3068<time>2005-09-24T15:04:10Z</time>
3069</trkpt>
3070<trkpt lat="50.8656846" lon="-1.572933672">
3071<time>2005-09-24T15:04:19Z</time>
3072</trkpt>
3073<trkpt lat="50.8673583" lon="-1.575272559">
3074<time>2005-09-24T15:04:45Z</time>
3075</trkpt>
3076<trkpt lat="50.86757287" lon="-1.57608795">
3077<time>2005-09-24T15:04:51Z</time>
3078</trkpt>
3079<trkpt lat="50.86901054" lon="-1.579027652">
3080<time>2005-09-24T15:05:10Z</time>
3081</trkpt>
3082<trkpt lat="50.869032" lon="-1.579714298">
3083<time>2005-09-24T15:05:17Z</time>
3084</trkpt>
3085<trkpt lat="50.86555585" lon="-1.582632542">
3086<time>2005-09-24T15:06:12Z</time>
3087</trkpt>
3088<trkpt lat="50.86413965" lon="-1.585765363">
3089<time>2005-09-24T15:06:48Z</time>
3090</trkpt>
3091<trkpt lat="50.86358175" lon="-1.586194517">
3092<time>2005-09-24T15:06:57Z</time>
3093</trkpt>
3094<trkpt lat="50.8628951" lon="-1.586430551">
3095<time>2005-09-24T15:07:06Z</time>
3096</trkpt>
3097<trkpt lat="50.86113557" lon="-1.588061335">
3098<time>2005-09-24T15:07:33Z</time>
3099</trkpt>
3100<trkpt lat="50.86079225" lon="-1.588597777">
3101<time>2005-09-24T15:07:39Z</time>
3102</trkpt>
3103<trkpt lat="50.86062059" lon="-1.58922005">
3104<time>2005-09-24T15:07:45Z</time>
3105</trkpt>
3106<trkpt lat="50.86036309" lon="-1.589820865">
3107<time>2005-09-24T15:07:50Z</time>
3108</trkpt>
3109<trkpt lat="50.85978374" lon="-1.591880802">
3110<time>2005-09-24T15:08:20Z</time>
3111</trkpt>
3112<trkpt lat="50.8606635" lon="-1.594434266">
3113<time>2005-09-24T15:08:56Z</time>
3114</trkpt>
3115<trkpt lat="50.86169347" lon="-1.595185284">
3116<time>2005-09-24T15:09:12Z</time>
3117</trkpt>
3118<trkpt lat="50.86203679" lon="-1.595099454">
3119<time>2005-09-24T15:09:18Z</time>
3120</trkpt>
3121<trkpt lat="50.86272344" lon="-1.594713215">
3122<time>2005-09-24T15:09:28Z</time>
3123</trkpt>
3124<trkpt lat="50.86379632" lon="-1.595142369">
3125<time>2005-09-24T15:09:54Z</time>
3126</trkpt>
3127<trkpt lat="50.86205825" lon="-1.596494203">
3128<time>2005-09-24T15:20:58Z</time>
3129</trkpt>
3130<trkpt lat="50.8605133" lon="-1.598425394">
3131<time>2005-09-24T15:23:55Z</time>
3132</trkpt>
3133<trkpt lat="50.86023435" lon="-1.598618513">
3134<time>2005-09-24T15:24:20Z</time>
3135</trkpt>
3136<trkpt lat="50.85993394" lon="-1.598511225">
3137<time>2005-09-24T15:24:44Z</time>
3138</trkpt>
3139<trkpt lat="50.85959062" lon="-1.598597055">
3140<time>2005-09-24T15:25:14Z</time>
3141</trkpt>
3142<trkpt lat="50.8589898" lon="-1.598940378">
3143<time>2005-09-24T15:26:08Z</time>
3144</trkpt>
3145<trkpt lat="50.8584319" lon="-1.599305159">
3146<time>2005-09-24T15:27:00Z</time>
3147</trkpt>
3148<trkpt lat="50.85804567" lon="-1.599927431">
3149<time>2005-09-24T15:27:47Z</time>
3150</trkpt>
3151<trkpt lat="50.85776672" lon="-1.600142008">
3152<time>2005-09-24T15:28:11Z</time>
3153</trkpt>
3154<trkpt lat="50.85748777" lon="-1.600206381">
3155<time>2005-09-24T15:28:34Z</time>
3156</trkpt>
3157<trkpt lat="50.85720882" lon="-1.599970347">
3158<time>2005-09-24T15:28:59Z</time>
3159</trkpt>
3160<trkpt lat="50.85720882" lon="-1.599498278">
3161<time>2005-09-24T15:29:33Z</time>
3162</trkpt>
3163<trkpt lat="50.85658654" lon="-1.599176413">
3164<time>2005-09-24T15:30:29Z</time>
3165</trkpt>
3166<trkpt lat="50.85639342" lon="-1.598532682">
3167<time>2005-09-24T15:31:04Z</time>
3168</trkpt>
3169<trkpt lat="50.85486993" lon="-1.597610002">
3170<time>2005-09-24T15:33:47Z</time>
3171</trkpt>
3172<trkpt lat="50.85399016" lon="-1.596236711">
3173<time>2005-09-24T15:37:15Z</time>
3174</trkpt>
3175<trkpt lat="50.8527027" lon="-1.593382839">
3176<time>2005-09-24T15:40:18Z</time>
3177</trkpt>
3178<trkpt lat="50.85180148" lon="-1.592588905">
3179<time>2005-09-24T15:41:45Z</time>
3180</trkpt>
3181<trkpt lat="50.85124358" lon="-1.592438701">
3182<time>2005-09-24T15:42:41Z</time>
3183</trkpt>
3184<trkpt lat="50.85025653" lon="-1.591516021">
3185<time>2005-09-24T15:44:35Z</time>
3186</trkpt>
3187<trkpt lat="50.84950551" lon="-1.591043952">
3188<time>2005-09-24T15:46:13Z</time>
3189</trkpt>
3190<trkpt lat="50.84821805" lon="-1.589949611">
3191<time>2005-09-24T15:48:31Z</time>
3192</trkpt>
3193<trkpt lat="50.84819659" lon="-1.590400222">
3194<time>2005-09-24T15:48:56Z</time>
3195</trkpt>
3196<trkpt lat="50.84804639" lon="-1.591601852">
3197<time>2005-09-24T15:49:57Z</time>
3198</trkpt>
3199<trkpt lat="50.84806785" lon="-1.592224125">
3200<time>2005-09-24T15:50:30Z</time>
3201</trkpt>
3202<trkpt lat="50.84789618" lon="-1.592996601">
3203<time>2005-09-24T15:51:19Z</time>
3204</trkpt>
3205<trkpt lat="50.84761723" lon="-1.593533043">
3206<time>2005-09-24T15:52:00Z</time>
3207</trkpt>
3208<trkpt lat="50.8473812" lon="-1.593811993">
3209<time>2005-09-24T15:52:28Z</time>
3210</trkpt>
3211<trkpt lat="50.84615811" lon="-1.594412808">
3212<time>2005-09-24T15:54:23Z</time>
3213</trkpt>
3214<trkpt lat="50.84577187" lon="-1.594241146">
3215<time>2005-09-24T15:54:53Z</time>
3216</trkpt>
3217<trkpt lat="50.84542855" lon="-1.593833451">
3218<time>2005-09-24T15:55:35Z</time>
3219</trkpt>
3220<trkpt lat="50.84426984" lon="-1.593425755">
3221<time>2005-09-24T16:01:45Z</time>
3222</trkpt>
3223<trkpt lat="50.84193095" lon="-1.597331052">
3224<time>2005-09-24T16:14:16Z</time>
3225</trkpt>
3226<trkpt lat="50.84158763" lon="-1.596301084">
3227<time>2005-09-24T16:15:43Z</time>
3228</trkpt>
3229<trkpt lat="50.8405362" lon="-1.595249657">
3230<time>2005-09-24T16:18:04Z</time>
3231</trkpt>
3232<trkpt lat="50.83963498" lon="-1.593082432">
3233<time>2005-09-24T16:22:18Z</time>
3234</trkpt>
3235<trkpt lat="50.83995684" lon="-1.594262604">
3236<time>2005-09-24T16:24:02Z</time>
3237</trkpt>
3238<trkpt lat="50.84238156" lon="-1.59763146">
3239<time>2005-09-24T16:29:52Z</time>
3240</trkpt>
3241<trkpt lat="50.84339007" lon="-1.599798685">
3242<time>2005-09-24T16:33:38Z</time>
3243</trkpt>
3244<trkpt lat="50.84411963" lon="-1.601644046">
3245<time>2005-09-24T16:36:20Z</time>
3246</trkpt>
3247<trkpt lat="50.84439858" lon="-1.601794249">
3248<time>2005-09-24T16:37:00Z</time>
3249</trkpt>
3250<trkpt lat="50.84497794" lon="-1.602309234">
3251<time>2005-09-24T16:38:08Z</time>
3252</trkpt>
3253<trkpt lat="50.84673747" lon="-1.60400439">
3254<time>2005-09-24T16:43:22Z</time>
3255</trkpt>
3256<trkpt lat="50.84725245" lon="-1.604176052">
3257<time>2005-09-24T16:44:15Z</time>
3258</trkpt>
3259<trkpt lat="50.84766015" lon="-1.604455002">
3260<time>2005-09-24T16:45:19Z</time>
3261</trkpt>
3262<trkpt lat="50.8480893" lon="-1.604347713">
3263<time>2005-09-24T16:46:00Z</time>
3264</trkpt>
3265<trkpt lat="50.84903344" lon="-1.604969986">
3266<time>2005-09-24T16:48:47Z</time>
3267</trkpt>
3268<trkpt lat="50.84916219" lon="-1.605399139">
3269<time>2005-09-24T16:49:46Z</time>
3270</trkpt>
3271<trkpt lat="50.84972009" lon="-1.605334766">
3272<time>2005-09-24T16:50:57Z</time>
3273</trkpt>
3274<trkpt lat="50.84944114" lon="-1.605721005">
3275<time>2005-09-24T16:51:19Z</time>
3276</trkpt>
3277<trkpt lat="50.84944114" lon="-1.605721005">
3278<time>2005-09-24T16:51:20Z</time>
3279</trkpt>
3280<trkpt lat="50.84982737" lon="-1.606343277">
3281<time>2005-09-24T16:52:26Z</time>
3282</trkpt>
3283<trkpt lat="50.85057839" lon="-1.606364735">
3284<time>2005-09-24T16:53:38Z</time>
3285</trkpt>
3286<trkpt lat="50.85085734" lon="-1.60696555">
3287<time>2005-09-24T16:56:47Z</time>
3288</trkpt>
3289<trkpt lat="50.85182294" lon="-1.608553418">
3290<time>2005-09-24T17:04:00Z</time>
3291</trkpt>
3292<trkpt lat="50.85210189" lon="-1.608553418">
3293<time>2005-09-24T17:04:19Z</time>
3294</trkpt>
3295<trkpt lat="50.85109338" lon="-1.608274468">
3296<time>2005-09-24T17:05:26Z</time>
3297</trkpt>
3298<trkpt lat="50.85141524" lon="-1.608553418">
3299<time>2005-09-24T17:06:08Z</time>
3300</trkpt>
3301<trkpt lat="50.85261687" lon="-1.608467587">
3302<time>2005-09-24T17:08:16Z</time>
3303</trkpt>
3304<trkpt lat="50.85132941" lon="-1.608596333">
3305<time>2005-09-24T17:10:56Z</time>
3306</trkpt>
3307<trkpt lat="50.85180148" lon="-1.608553418">
3308<time>2005-09-24T17:13:07Z</time>
3309</trkpt>
3310<trkpt lat="50.85261687" lon="-1.608939656">
3311<time>2005-09-24T17:13:59Z</time>
3312</trkpt>
3313<trkpt lat="50.85287437" lon="-1.609197148">
3314<time>2005-09-24T17:14:18Z</time>
3315</trkpt>
3316<trkpt lat="50.85225209" lon="-1.608467587">
3317<time>2005-09-24T17:14:45Z</time>
3318</trkpt>
3319<trkpt lat="50.85334643" lon="-1.608875283">
3320<time>2005-09-24T17:15:35Z</time>
3321</trkpt>
3322<trkpt lat="50.85353955" lon="-1.608016976">
3323<time>2005-09-24T17:17:15Z</time>
3324</trkpt>
3325<trkpt lat="50.85420474" lon="-1.607373246">
3326<time>2005-09-24T17:18:08Z</time>
3327</trkpt>
3328<trkpt lat="50.85461244" lon="-1.606536396">
3329<time>2005-09-24T17:19:48Z</time>
3330</trkpt>
3331<trkpt lat="50.85523471" lon="-1.606278904">
3332<time>2005-09-24T17:20:28Z</time>
3333</trkpt>
3334<trkpt lat="50.85581407" lon="-1.605570801">
3335<time>2005-09-24T17:21:55Z</time>
3336</trkpt>
3337<trkpt lat="50.85553512" lon="-1.605291851">
3338<time>2005-09-24T17:22:25Z</time>
3339</trkpt>
3340<trkpt lat="50.85562095" lon="-1.604691036">
3341<time>2005-09-24T17:23:37Z</time>
3342</trkpt>
3343<trkpt lat="50.85654363" lon="-1.604154594">
3344<time>2005-09-24T17:25:16Z</time>
3345</trkpt>
3346<trkpt lat="50.85723027" lon="-1.603489406">
3347<time>2005-09-24T17:26:34Z</time>
3348</trkpt>
3349<trkpt lat="50.857874" lon="-1.602459437">
3350<time>2005-09-24T17:28:34Z</time>
3351</trkpt>
3352<trkpt lat="50.85832462" lon="-1.602459437">
3353<time>2005-09-24T17:28:58Z</time>
3354</trkpt>
3355<trkpt lat="50.85849628" lon="-1.602116115">
3356<time>2005-09-24T17:30:38Z</time>
3357</trkpt>
3358<trkpt lat="50.86025581" lon="-1.60123635">
3359<time>2005-09-24T17:33:23Z</time>
3360</trkpt>
3361<trkpt lat="50.85944041" lon="-1.600184923">
3362<time>2005-09-24T17:34:33Z</time>
3363</trkpt>
3364<trkpt lat="50.85976228" lon="-1.599283701">
3365<time>2005-09-24T17:36:10Z</time>
3366</trkpt>
3367<trkpt lat="50.86248741" lon="-1.596086507">
3368<time>2005-09-24T17:40:57Z</time>
3369</trkpt>
3370<trkpt lat="50.86293802" lon="-1.595914845">
3371<time>2005-09-24T17:41:38Z</time>
3372</trkpt>
3373<trkpt lat="50.86368904" lon="-1.595099454">
3374<time>2005-09-24T18:29:14Z</time>
3375</trkpt>
3376<trkpt lat="50.86308822" lon="-1.595764642">
3377<time>2005-09-24T18:30:32Z</time>
3378</trkpt>
3379<trkpt lat="50.86261615" lon="-1.595957761">
3380<time>2005-09-24T18:30:39Z</time>
3381</trkpt>
3382<trkpt lat="50.86119994" lon="-1.597288137">
3383<time>2005-09-24T18:31:05Z</time>
3384</trkpt>
3385<trkpt lat="50.86366758" lon="-1.5952282">
3386<time>2005-09-24T18:32:06Z</time>
3387</trkpt>
3388<trkpt lat="50.8638607" lon="-1.594884877">
3389<time>2005-09-24T18:32:14Z</time>
3390</trkpt>
3391<trkpt lat="50.86523399" lon="-1.593811993">
3392<time>2005-09-24T18:32:35Z</time>
3393</trkpt>
3394<trkpt lat="50.86594209" lon="-1.593575958">
3395<time>2005-09-24T18:32:54Z</time>
3396</trkpt>
3397<trkpt lat="50.86821661" lon="-1.591086868">
3398<time>2005-09-24T18:33:20Z</time>
3399</trkpt>
3400<trkpt lat="50.87154255" lon="-1.589735034">
3401<time>2005-09-24T18:33:48Z</time>
3402</trkpt>
3403<trkpt lat="50.87192878" lon="-1.589456084">
3404<time>2005-09-24T18:33:52Z</time>
3405</trkpt>
3406<trkpt lat="50.87225065" lon="-1.588361743">
3407<time>2005-09-24T18:34:00Z</time>
3408</trkpt>
3409<trkpt lat="50.871564" lon="-1.58597994">
3410<time>2005-09-24T18:34:13Z</time>
3411</trkpt>
3412<trkpt lat="50.87137088" lon="-1.584735395">
3413<time>2005-09-24T18:34:19Z</time>
3414</trkpt>
3415<trkpt lat="50.80034597" lon="-1.55353593">
3416<time>2005-09-25T15:30:36Z</time>
3417</trkpt>
3418<trkpt lat="50.80088241" lon="-1.553342811">
3419<time>2005-09-25T15:33:36Z</time>
3420</trkpt>
3421<trkpt lat="50.80019576" lon="-1.552956573">
3422<time>2005-09-25T15:35:47Z</time>
3423</trkpt>
3424<trkpt lat="50.79938037" lon="-1.552870742">
3425<time>2005-09-25T15:36:48Z</time>
3426</trkpt>
3427<trkpt lat="50.7987581" lon="-1.5523343">
3428<time>2005-09-25T15:38:15Z</time>
3429</trkpt>
3430<trkpt lat="50.79813583" lon="-1.55141162">
3431<time>2005-09-25T15:39:39Z</time>
3432</trkpt>
3433<trkpt lat="50.79710586" lon="-1.550875178">
3434<time>2005-09-25T15:40:42Z</time>
3435</trkpt>
3436<trkpt lat="50.7959686" lon="-1.550724974">
3437<time>2005-09-25T15:42:35Z</time>
3438</trkpt>
3439<trkpt lat="50.79547507" lon="-1.550338736">
3440<time>2005-09-25T15:43:26Z</time>
3441</trkpt>
3442<trkpt lat="50.7942949" lon="-1.549888125">
3443<time>2005-09-25T15:44:46Z</time>
3444</trkpt>
3445<trkpt lat="50.79274995" lon="-1.54993104">
3446<time>2005-09-25T15:46:49Z</time>
3447</trkpt>
3448<trkpt lat="50.79251392" lon="-1.548750868">
3449<time>2005-09-25T15:47:52Z</time>
3450</trkpt>
3451<trkpt lat="50.79212768" lon="-1.548042764">
3452<time>2005-09-25T15:48:54Z</time>
3453</trkpt>
3454<trkpt lat="50.79184873" lon="-1.547828188">
3455<time>2005-09-25T15:49:16Z</time>
3456</trkpt>
3457<trkpt lat="50.79159123" lon="-1.547484865">
3458<time>2005-09-25T15:49:41Z</time>
3459</trkpt>
3460<trkpt lat="50.79154832" lon="-1.546862592">
3461<time>2005-09-25T15:51:36Z</time>
3462</trkpt>
3463<trkpt lat="50.7913552" lon="-1.546240319">
3464<time>2005-09-25T15:52:36Z</time>
3465</trkpt>
3466<trkpt lat="50.79189164" lon="-1.544673909">
3467<time>2005-09-25T15:55:00Z</time>
3468</trkpt>
3469<trkpt lat="50.79234225" lon="-1.542013157">
3470<time>2005-09-25T16:05:37Z</time>
3471</trkpt>
3472<trkpt lat="50.79210622" lon="-1.542420853">
3473<time>2005-09-25T16:06:09Z</time>
3474</trkpt>
3475<trkpt lat="50.79214913" lon="-1.541412342">
3476<time>2005-09-25T16:07:18Z</time>
3477</trkpt>
3478<trkpt lat="50.79292161" lon="-1.540832984">
3479<time>2005-09-25T16:08:34Z</time>
3480</trkpt>
3481<trkpt lat="50.79305036" lon="-1.540403831">
3482<time>2005-09-25T16:09:05Z</time>
3483</trkpt>
3484<trkpt lat="50.79328639" lon="-1.540124881">
3485<time>2005-09-25T16:09:26Z</time>
3486</trkpt>
3487<trkpt lat="50.79354388" lon="-1.539459693">
3488<time>2005-09-25T16:10:06Z</time>
3489</trkpt>
3490<trkpt lat="50.79375846" lon="-1.538279521">
3491<time>2005-09-25T16:11:06Z</time>
3492</trkpt>
3493<trkpt lat="50.79371555" lon="-1.537614333">
3494<time>2005-09-25T16:11:48Z</time>
3495</trkpt>
3496<trkpt lat="50.79399449" lon="-1.537442671">
3497<time>2005-09-25T16:12:47Z</time>
3498</trkpt>
3499<trkpt lat="50.79659087" lon="-1.536756026">
3500<time>2005-09-25T16:19:27Z</time>
3501</trkpt>
3502<trkpt lat="50.79736335" lon="-1.536584364">
3503<time>2005-09-25T16:21:03Z</time>
3504</trkpt>
3505<trkpt lat="50.79800708" lon="-1.537120806">
3506<time>2005-09-25T16:22:08Z</time>
3507</trkpt>
3508<trkpt lat="50.79774959" lon="-1.536477076">
3509<time>2005-09-25T16:22:32Z</time>
3510</trkpt>
3511<trkpt lat="50.79963786" lon="-1.534352766">
3512<time>2005-09-25T16:27:46Z</time>
3513</trkpt>
3514<trkpt lat="50.80071075" lon="-1.53274344">
3515<time>2005-09-25T16:30:38Z</time>
3516</trkpt>
3517<trkpt lat="50.80068929" lon="-1.531370148">
3518<time>2005-09-25T16:31:47Z</time>
3519</trkpt>
3520<trkpt lat="50.80126865" lon="-1.533451543">
3521<time>2005-09-25T16:35:08Z</time>
3522</trkpt>
3523<trkpt lat="50.80101116" lon="-1.533623204">
3524<time>2005-09-25T16:35:38Z</time>
3525</trkpt>
3526<trkpt lat="50.80292089" lon="-1.531606183">
3527<time>2005-09-25T16:38:44Z</time>
3528</trkpt>
3529<trkpt lat="50.80292089" lon="-1.531606183">
3530<time>2005-09-25T16:39:05Z</time>
3531</trkpt>
3532<trkpt lat="50.80564601" lon="-1.530232891">
3533<time>2005-09-25T16:42:49Z</time>
3534</trkpt>
3535<trkpt lat="50.80594642" lon="-1.530490383">
3536<time>2005-09-25T16:43:50Z</time>
3537</trkpt>
3538<trkpt lat="50.80613954" lon="-1.528387531">
3539<time>2005-09-25T16:46:22Z</time>
3540</trkpt>
3541<trkpt lat="50.80613954" lon="-1.528387531">
3542<time>2005-09-25T16:46:36Z</time>
3543</trkpt>
3544<trkpt lat="50.8054529" lon="-1.524847014">
3545<time>2005-09-25T16:50:02Z</time>
3546</trkpt>
3547<trkpt lat="50.80603225" lon="-1.524224741">
3548<time>2005-09-25T16:51:37Z</time>
3549</trkpt>
3550<trkpt lat="50.80603225" lon="-1.524224741">
3551<time>2005-09-25T16:51:42Z</time>
3552</trkpt>
3553</trkseg>
3554</trk>
3555</gpx>
Note: See TracBrowser for help on using the repository browser.